<?xml version='1.0' encoding='UTF-8'?><gpx version="1.1" creator="JPX - https://github.com/jenetics/jpx" xmlns="http://www.topografix.com/GPX/1/1"><trk><trkseg><trkpt lat="39.9183377" lon="15.7696616"><ele>11.0</ele><time>2026-04-04T13:49:54.373Z</time></trkpt><trkpt lat="39.9184414" lon="15.7697258"><ele>11.0</ele><time>2026-04-04T13:50:01.374Z</time></trkpt><trkpt lat="39.9183877" lon="15.7696657"><ele>11.0</ele><time>2026-04-04T13:50:06.373Z</time></trkpt><trkpt lat="39.9183225" lon="15.7696857"><ele>11.0</ele><time>2026-04-04T13:50:08.373Z</time></trkpt><trkpt lat="39.91829" lon="15.7697674"><ele>11.0</ele><time>2026-04-04T13:50:12.373Z</time></trkpt><trkpt lat="39.9183809" lon="15.769704"><ele>11.0</ele><time>2026-04-04T13:50:28.373Z</time></trkpt><trkpt lat="39.9184433" lon="15.7697214"><ele>10.833333333333332</ele><time>2026-04-04T13:50:30.373Z</time></trkpt><trkpt lat="39.9185689" lon="15.7697304"><ele>10.666666666666666</ele><time>2026-04-04T13:50:34.374Z</time></trkpt><trkpt lat="39.918663" lon="15.7697276"><ele>10.5</ele><time>2026-04-04T13:50:37.373Z</time></trkpt><trkpt lat="39.9187271" lon="15.7697248"><ele>10.333333333333334</ele><time>2026-04-04T13:50:39.373Z</time></trkpt><trkpt lat="39.9187927" lon="15.7697236"><ele>10.166666666666668</ele><time>2026-04-04T13:50:41.373Z</time></trkpt><trkpt lat="39.9188662" lon="15.7697182"><ele>10.0</ele><time>2026-04-04T13:50:43.373Z</time></trkpt><trkpt lat="39.918944" lon="15.7697173"><ele>10.0</ele><time>2026-04-04T13:50:45.373Z</time></trkpt><trkpt lat="39.919059" lon="15.7697443"><ele>10.0</ele><time>2026-04-04T13:50:48.373Z</time></trkpt><trkpt lat="39.9191701" lon="15.7697648"><ele>10.0</ele><time>2026-04-04T13:50:51.373Z</time></trkpt><trkpt lat="39.9192397" lon="15.7697772"><ele>10.0</ele><time>2026-04-04T13:50:53.373Z</time></trkpt><trkpt lat="39.9195089" lon="15.7698485"><ele>10.6</ele><time>2026-04-04T13:51:02.373Z</time></trkpt><trkpt lat="39.9196331" lon="15.7698862"><ele>11.2</ele><time>2026-04-04T13:51:06.373Z</time></trkpt><trkpt lat="39.9197486" lon="15.7699303"><ele>11.8</ele><time>2026-04-04T13:51:10.373Z</time></trkpt><trkpt lat="39.9198369" lon="15.7699742"><ele>12.4</ele><time>2026-04-04T13:51:13.373Z</time></trkpt><trkpt lat="39.9199179" lon="15.770034"><ele>13.0</ele><time>2026-04-04T13:51:16.373Z</time></trkpt><trkpt lat="39.9199739" lon="15.7700813"><ele>12.999999999999998</ele><time>2026-04-04T13:51:18.373Z</time></trkpt><trkpt lat="39.9200504" lon="15.770147"><ele>13.0</ele><time>2026-04-04T13:51:21.373Z</time></trkpt><trkpt lat="39.9201169" lon="15.7702063"><ele>13.0</ele><time>2026-04-04T13:51:24.373Z</time></trkpt><trkpt lat="39.920173" lon="15.7702591"><ele>13.0</ele><time>2026-04-04T13:51:28.373Z</time></trkpt><trkpt lat="39.9202482" lon="15.7702856"><ele>12.999999999999998</ele><time>2026-04-04T13:51:32.373Z</time></trkpt><trkpt lat="39.9203166" lon="15.7702353"><ele>13.0</ele><time>2026-04-04T13:51:34.373Z</time></trkpt><trkpt lat="39.9203858" lon="15.7701697"><ele>12.75</ele><time>2026-04-04T13:51:36.373Z</time></trkpt><trkpt lat="39.9204595" lon="15.770089"><ele>12.5</ele><time>2026-04-04T13:51:38.373Z</time></trkpt><trkpt lat="39.9205391" lon="15.7700132"><ele>12.25</ele><time>2026-04-04T13:51:40.373Z</time></trkpt><trkpt lat="39.9207147" lon="15.7698742"><ele>12.0</ele><time>2026-04-04T13:51:44.373Z</time></trkpt><trkpt lat="39.9208001" lon="15.7698028"><ele>12.0</ele><time>2026-04-04T13:51:46.373Z</time></trkpt><trkpt lat="39.9208859" lon="15.7697314"><ele>12.0</ele><time>2026-04-04T13:51:48.373Z</time></trkpt><trkpt lat="39.9210172" lon="15.7696305"><ele>12.0</ele><time>2026-04-04T13:51:51.373Z</time></trkpt><trkpt lat="39.9211002" lon="15.769561"><ele>12.0</ele><time>2026-04-04T13:51:53.373Z</time></trkpt><trkpt lat="39.9211854" lon="15.7694934"><ele>12.25</ele><time>2026-04-04T13:51:55.373Z</time></trkpt><trkpt lat="39.9212674" lon="15.7694254"><ele>12.5</ele><time>2026-04-04T13:51:57.373Z</time></trkpt><trkpt lat="39.9214547" lon="15.7692624"><ele>12.75</ele><time>2026-04-04T13:52:02.373Z</time></trkpt><trkpt lat="39.9215328" lon="15.7692086"><ele>13.0</ele><time>2026-04-04T13:52:04.374Z</time></trkpt><trkpt lat="39.9216038" lon="15.7691464"><ele>13.0</ele><time>2026-04-04T13:52:06.374Z</time></trkpt><trkpt lat="39.9216831" lon="15.7690763"><ele>13.0</ele><time>2026-04-04T13:52:08.373Z</time></trkpt><trkpt lat="39.9217684" lon="15.769001"><ele>13.0</ele><time>2026-04-04T13:52:10.373Z</time></trkpt><trkpt lat="39.9218544" lon="15.7689218"><ele>13.0</ele><time>2026-04-04T13:52:12.373Z</time></trkpt><trkpt lat="39.921943" lon="15.7688475"><ele>13.0</ele><time>2026-04-04T13:52:14.373Z</time></trkpt><trkpt lat="39.9220884" lon="15.768753"><ele>13.0</ele><time>2026-04-04T13:52:17.373Z</time></trkpt><trkpt lat="39.9222673" lon="15.7686345"><ele>13.0</ele><time>2026-04-04T13:52:21.373Z</time></trkpt><trkpt lat="39.9223969" lon="15.7685555"><ele>13.0</ele><time>2026-04-04T13:52:24.373Z</time></trkpt><trkpt lat="39.9224823" lon="15.7685026"><ele>13.0</ele><time>2026-04-04T13:52:26.373Z</time></trkpt><trkpt lat="39.9225706" lon="15.7684382"><ele>13.0</ele><time>2026-04-04T13:52:28.373Z</time></trkpt><trkpt lat="39.9226625" lon="15.7683902"><ele>13.0</ele><time>2026-04-04T13:52:30.373Z</time></trkpt><trkpt lat="39.9227574" lon="15.7683363"><ele>13.0</ele><time>2026-04-04T13:52:32.373Z</time></trkpt><trkpt lat="39.9228988" lon="15.7682697"><ele>13.0</ele><time>2026-04-04T13:52:35.373Z</time></trkpt><trkpt lat="39.9229971" lon="15.7682234"><ele>13.0</ele><time>2026-04-04T13:52:37.373Z</time></trkpt><trkpt lat="39.9231376" lon="15.7681398"><ele>13.0</ele><time>2026-04-04T13:52:40.373Z</time></trkpt><trkpt lat="39.923318" lon="15.768022"><ele>13.0</ele><time>2026-04-04T13:52:44.373Z</time></trkpt><trkpt lat="39.9234133" lon="15.7679657"><ele>13.2</ele><time>2026-04-04T13:52:46.373Z</time></trkpt><trkpt lat="39.9235117" lon="15.7679058"><ele>13.4</ele><time>2026-04-04T13:52:48.373Z</time></trkpt><trkpt lat="39.923608" lon="15.7678421"><ele>13.599999999999998</ele><time>2026-04-04T13:52:50.373Z</time></trkpt><trkpt lat="39.9237042" lon="15.7677897"><ele>13.799999999999999</ele><time>2026-04-04T13:52:52.374Z</time></trkpt><trkpt lat="39.9237981" lon="15.7677399"><ele>14.0</ele><time>2026-04-04T13:52:54.373Z</time></trkpt><trkpt lat="39.9238931" lon="15.7676924"><ele>14.0</ele><time>2026-04-04T13:52:56.373Z</time></trkpt><trkpt lat="39.9239858" lon="15.7676355"><ele>13.999999999999998</ele><time>2026-04-04T13:52:58.373Z</time></trkpt><trkpt lat="39.9240769" lon="15.7675808"><ele>13.999999999999998</ele><time>2026-04-04T13:53:00.373Z</time></trkpt><trkpt lat="39.9241667" lon="15.7675266"><ele>14.0</ele><time>2026-04-04T13:53:02.373Z</time></trkpt><trkpt lat="39.924256" lon="15.7674731"><ele>14.0</ele><time>2026-04-04T13:53:04.373Z</time></trkpt><trkpt lat="39.9243956" lon="15.7673932"><ele>14.0</ele><time>2026-04-04T13:53:07.373Z</time></trkpt><trkpt lat="39.9245607" lon="15.7672894"><ele>14.0</ele><time>2026-04-04T13:53:11.373Z</time></trkpt><trkpt lat="39.9246184" lon="15.767337"><ele>14.0</ele><time>2026-04-04T13:53:13.373Z</time></trkpt><trkpt lat="39.9246602" lon="15.7674527"><ele>14.0</ele><time>2026-04-04T13:53:16.373Z</time></trkpt><trkpt lat="39.9247053" lon="15.7675842"><ele>14.000000000000002</ele><time>2026-04-04T13:53:19.373Z</time></trkpt><trkpt lat="39.9247353" lon="15.7676777"><ele>14.0</ele><time>2026-04-04T13:53:21.373Z</time></trkpt><trkpt lat="39.9247632" lon="15.7677688"><ele>14.0</ele><time>2026-04-04T13:53:23.373Z</time></trkpt><trkpt lat="39.9247905" lon="15.7678597"><ele>14.0</ele><time>2026-04-04T13:53:25.374Z</time></trkpt><trkpt lat="39.9248176" lon="15.7679486"><ele>14.000000000000002</ele><time>2026-04-04T13:53:27.373Z</time></trkpt><trkpt lat="39.924847" lon="15.7680413"><ele>14.0</ele><time>2026-04-04T13:53:29.373Z</time></trkpt><trkpt lat="39.9248754" lon="15.7681323"><ele>14.399999999999999</ele><time>2026-04-04T13:53:31.373Z</time></trkpt><trkpt lat="39.9249381" lon="15.7682982"><ele>14.799999999999999</ele><time>2026-04-04T13:53:35.373Z</time></trkpt><trkpt lat="39.9249928" lon="15.768433"><ele>15.200000000000001</ele><time>2026-04-04T13:53:39.373Z</time></trkpt><trkpt lat="39.925113" lon="15.768402"><ele>15.600000000000001</ele><time>2026-04-04T13:53:43.373Z</time></trkpt><trkpt lat="39.925175" lon="15.7683738"><ele>16.0</ele><time>2026-04-04T13:53:45.373Z</time></trkpt><trkpt lat="39.9252393" lon="15.7683597"><ele>16.0</ele><time>2026-04-04T13:53:47.373Z</time></trkpt><trkpt lat="39.9253688" lon="15.7683483"><ele>16.0</ele><time>2026-04-04T13:53:51.373Z</time></trkpt><trkpt lat="39.9254378" lon="15.7683444"><ele>16.0</ele><time>2026-04-04T13:53:54.373Z</time></trkpt><trkpt lat="39.9255019" lon="15.7683339"><ele>16.0</ele><time>2026-04-04T13:53:58.373Z</time></trkpt><trkpt lat="39.9256173" lon="15.7684068"><ele>16.0</ele><time>2026-04-04T13:54:08.374Z</time></trkpt><trkpt lat="39.9257048" lon="15.7683916"><ele>16.0</ele><time>2026-04-04T13:54:10.373Z</time></trkpt><trkpt lat="39.9258006" lon="15.7683655"><ele>16.0</ele><time>2026-04-04T13:54:12.373Z</time></trkpt><trkpt lat="39.9259585" lon="15.7683279"><ele>16.0</ele><time>2026-04-04T13:54:15.373Z</time></trkpt><trkpt lat="39.9261814" lon="15.7682769"><ele>16.0</ele><time>2026-04-04T13:54:19.373Z</time></trkpt><trkpt lat="39.9264167" lon="15.7682454"><ele>16.0</ele><time>2026-04-04T13:54:23.373Z</time></trkpt><trkpt lat="39.9265358" lon="15.7682454"><ele>16.0</ele><time>2026-04-04T13:54:25.373Z</time></trkpt><trkpt lat="39.9265965" lon="15.7682723"><ele>16.0</ele><time>2026-04-04T13:54:26.373Z</time></trkpt><trkpt lat="39.9267182" lon="15.7683313"><ele>15.600000000000001</ele><time>2026-04-04T13:54:28.373Z</time></trkpt><trkpt lat="39.9267883" lon="15.7683489"><ele>15.200000000000001</ele><time>2026-04-04T13:54:29.373Z</time></trkpt><trkpt lat="39.9269086" lon="15.7683082"><ele>14.799999999999999</ele><time>2026-04-04T13:54:32.373Z</time></trkpt><trkpt lat="39.9269604" lon="15.7681526"><ele>14.399999999999999</ele><time>2026-04-04T13:54:36.373Z</time></trkpt><trkpt lat="39.9270251" lon="15.768103"><ele>14.0</ele><time>2026-04-04T13:54:38.373Z</time></trkpt><trkpt lat="39.9270836" lon="15.7680666"><ele>14.0</ele><time>2026-04-04T13:54:40.373Z</time></trkpt><trkpt lat="39.9271703" lon="15.7680824"><ele>14.0</ele><time>2026-04-04T13:54:42.373Z</time></trkpt><trkpt lat="39.9272717" lon="15.7680885"><ele>14.0</ele><time>2026-04-04T13:54:44.373Z</time></trkpt><trkpt lat="39.9273829" lon="15.7680871"><ele>14.0</ele><time>2026-04-04T13:54:46.374Z</time></trkpt><trkpt lat="39.9275546" lon="15.7680848"><ele>14.0</ele><time>2026-04-04T13:54:49.373Z</time></trkpt><trkpt lat="39.9276778" lon="15.7680775"><ele>14.0</ele><time>2026-04-04T13:54:51.373Z</time></trkpt><trkpt lat="39.9278033" lon="15.7680616"><ele>14.0</ele><time>2026-04-04T13:54:53.373Z</time></trkpt><trkpt lat="39.9279265" lon="15.7680588"><ele>14.0</ele><time>2026-04-04T13:54:55.374Z</time></trkpt><trkpt lat="39.9281565" lon="15.7680532"><ele>14.0</ele><time>2026-04-04T13:54:59.373Z</time></trkpt><trkpt lat="39.928373" lon="15.7680851"><ele>14.0</ele><time>2026-04-04T13:55:03.373Z</time></trkpt><trkpt lat="39.9284827" lon="15.7681106"><ele>14.0</ele><time>2026-04-04T13:55:05.373Z</time></trkpt><trkpt lat="39.9286998" lon="15.768158"><ele>13.75</ele><time>2026-04-04T13:55:09.373Z</time></trkpt><trkpt lat="39.9288628" lon="15.7681854"><ele>13.5</ele><time>2026-04-04T13:55:12.373Z</time></trkpt><trkpt lat="39.9289653" lon="15.7682015"><ele>13.25</ele><time>2026-04-04T13:55:14.374Z</time></trkpt><trkpt lat="39.9290676" lon="15.7682181"><ele>13.0</ele><time>2026-04-04T13:55:16.373Z</time></trkpt><trkpt lat="39.9293167" lon="15.7682586"><ele>13.5</ele><time>2026-04-04T13:55:21.374Z</time></trkpt><trkpt lat="39.9295023" lon="15.7682705"><ele>14.0</ele><time>2026-04-04T13:55:25.373Z</time></trkpt><trkpt lat="39.9296457" lon="15.7682774"><ele>14.5</ele><time>2026-04-04T13:55:28.373Z</time></trkpt><trkpt lat="39.9297388" lon="15.7682949"><ele>15.0</ele><time>2026-04-04T13:55:30.373Z</time></trkpt><trkpt lat="39.9299064" lon="15.7683328"><ele>15.0</ele><time>2026-04-04T13:55:34.373Z</time></trkpt><trkpt lat="39.9299814" lon="15.768358"><ele>15.0</ele><time>2026-04-04T13:55:36.373Z</time></trkpt><trkpt lat="39.9301482" lon="15.7683809"><ele>15.0</ele><time>2026-04-04T13:55:40.373Z</time></trkpt><trkpt lat="39.9302453" lon="15.7683868"><ele>15.0</ele><time>2026-04-04T13:55:42.373Z</time></trkpt><trkpt lat="39.9304507" lon="15.7684256"><ele>15.0</ele><time>2026-04-04T13:55:46.373Z</time></trkpt><trkpt lat="39.930551" lon="15.7684414"><ele>15.0</ele><time>2026-04-04T13:55:48.373Z</time></trkpt><trkpt lat="39.9306512" lon="15.7684558"><ele>15.0</ele><time>2026-04-04T13:55:50.373Z</time></trkpt><trkpt lat="39.9308103" lon="15.7684891"><ele>15.0</ele><time>2026-04-04T13:55:53.373Z</time></trkpt><trkpt lat="39.9309105" lon="15.7685124"><ele>15.666666666666668</ele><time>2026-04-04T13:55:55.373Z</time></trkpt><trkpt lat="39.9311764" lon="15.7686075"><ele>16.333333333333336</ele><time>2026-04-04T13:56:01.373Z</time></trkpt><trkpt lat="39.9313199" lon="15.7686308"><ele>17.0</ele><time>2026-04-04T13:56:04.373Z</time></trkpt><trkpt lat="39.9314769" lon="15.7686464"><ele>17.0</ele><time>2026-04-04T13:56:07.373Z</time></trkpt><trkpt lat="39.9316361" lon="15.7686513"><ele>17.0</ele><time>2026-04-04T13:56:10.373Z</time></trkpt><trkpt lat="39.9317994" lon="15.7686384"><ele>17.0</ele><time>2026-04-04T13:56:13.373Z</time></trkpt><trkpt lat="39.9319025" lon="15.7686141"><ele>17.0</ele><time>2026-04-04T13:56:15.373Z</time></trkpt><trkpt lat="39.9320612" lon="15.7685965"><ele>16.75</ele><time>2026-04-04T13:56:18.373Z</time></trkpt><trkpt lat="39.9322648" lon="15.7685614"><ele>16.5</ele><time>2026-04-04T13:56:22.373Z</time></trkpt><trkpt lat="39.9323672" lon="15.76854"><ele>16.25</ele><time>2026-04-04T13:56:24.373Z</time></trkpt><trkpt lat="39.9324633" lon="15.7685239"><ele>16.0</ele><time>2026-04-04T13:56:26.373Z</time></trkpt><trkpt lat="39.9325593" lon="15.7685064"><ele>16.0</ele><time>2026-04-04T13:56:28.373Z</time></trkpt><trkpt lat="39.932703" lon="15.7684797"><ele>16.0</ele><time>2026-04-04T13:56:31.373Z</time></trkpt><trkpt lat="39.9328497" lon="15.7684577"><ele>16.0</ele><time>2026-04-04T13:56:34.373Z</time></trkpt><trkpt lat="39.9329467" lon="15.76845"><ele>16.0</ele><time>2026-04-04T13:56:36.373Z</time></trkpt><trkpt lat="39.9330418" lon="15.7684535"><ele>16.0</ele><time>2026-04-04T13:56:38.373Z</time></trkpt><trkpt lat="39.9331346" lon="15.7684554"><ele>16.0</ele><time>2026-04-04T13:56:40.373Z</time></trkpt><trkpt lat="39.9332291" lon="15.7684541"><ele>16.0</ele><time>2026-04-04T13:56:42.374Z</time></trkpt><trkpt lat="39.9333724" lon="15.7684518"><ele>16.0</ele><time>2026-04-04T13:56:45.373Z</time></trkpt><trkpt lat="39.9334657" lon="15.7684489"><ele>16.0</ele><time>2026-04-04T13:56:47.373Z</time></trkpt><trkpt lat="39.9336414" lon="15.7684613"><ele>16.0</ele><time>2026-04-04T13:56:51.373Z</time></trkpt><trkpt lat="39.9338261" lon="15.768464"><ele>16.0</ele><time>2026-04-04T13:56:55.373Z</time></trkpt><trkpt lat="39.9339164" lon="15.7684637"><ele>16.0</ele><time>2026-04-04T13:56:57.373Z</time></trkpt><trkpt lat="39.9340444" lon="15.7684802"><ele>16.0</ele><time>2026-04-04T13:57:00.373Z</time></trkpt><trkpt lat="39.9341312" lon="15.7684796"><ele>16.0</ele><time>2026-04-04T13:57:02.373Z</time></trkpt><trkpt lat="39.9342181" lon="15.7684763"><ele>16.0</ele><time>2026-04-04T13:57:04.373Z</time></trkpt><trkpt lat="39.9343429" lon="15.768467"><ele>16.0</ele><time>2026-04-04T13:57:07.373Z</time></trkpt><trkpt lat="39.9344237" lon="15.7684667"><ele>16.0</ele><time>2026-04-04T13:57:09.373Z</time></trkpt><trkpt lat="39.9345023" lon="15.7684723"><ele>16.0</ele><time>2026-04-04T13:57:11.373Z</time></trkpt><trkpt lat="39.9346109" lon="15.7684995"><ele>16.2</ele><time>2026-04-04T13:57:14.374Z</time></trkpt><trkpt lat="39.9346824" lon="15.7685268"><ele>16.400000000000002</ele><time>2026-04-04T13:57:16.373Z</time></trkpt><trkpt lat="39.9348228" lon="15.7685823"><ele>16.6</ele><time>2026-04-04T13:57:20.373Z</time></trkpt><trkpt lat="39.9349299" lon="15.7686258"><ele>16.8</ele><time>2026-04-04T13:57:23.373Z</time></trkpt><trkpt lat="39.9350022" lon="15.7686535"><ele>17.0</ele><time>2026-04-04T13:57:25.374Z</time></trkpt><trkpt lat="39.9351041" lon="15.7686949"><ele>17.285714285714285</ele><time>2026-04-04T13:57:28.373Z</time></trkpt><trkpt lat="39.9351756" lon="15.7687209"><ele>17.57142857142857</ele><time>2026-04-04T13:57:30.373Z</time></trkpt><trkpt lat="39.935246" lon="15.7687464"><ele>17.857142857142854</ele><time>2026-04-04T13:57:32.373Z</time></trkpt><trkpt lat="39.9353162" lon="15.7687771"><ele>18.142857142857142</ele><time>2026-04-04T13:57:34.373Z</time></trkpt><trkpt lat="39.9353858" lon="15.768805"><ele>18.42857142857143</ele><time>2026-04-04T13:57:36.373Z</time></trkpt><trkpt lat="39.9354567" lon="15.7688344"><ele>18.71428571428571</ele><time>2026-04-04T13:57:38.373Z</time></trkpt><trkpt lat="39.9355319" lon="15.7688613"><ele>19.0</ele><time>2026-04-04T13:57:40.373Z</time></trkpt><trkpt lat="39.9356411" lon="15.7689001"><ele>19.0</ele><time>2026-04-04T13:57:43.373Z</time></trkpt><trkpt lat="39.9357103" lon="15.7689191"><ele>19.0</ele><time>2026-04-04T13:57:45.373Z</time></trkpt><trkpt lat="39.9358197" lon="15.7689273"><ele>19.0</ele><time>2026-04-04T13:57:48.373Z</time></trkpt><trkpt lat="39.9359656" lon="15.7689149"><ele>19.0</ele><time>2026-04-04T13:57:52.373Z</time></trkpt><trkpt lat="39.9361076" lon="15.7688353"><ele>18.8</ele><time>2026-04-04T13:57:56.374Z</time></trkpt><trkpt lat="39.9361749" lon="15.7687786"><ele>18.599999999999998</ele><time>2026-04-04T13:57:58.373Z</time></trkpt><trkpt lat="39.93629" lon="15.7686308"><ele>18.4</ele><time>2026-04-04T13:58:02.373Z</time></trkpt><trkpt lat="39.936339" lon="15.7684873"><ele>18.2</ele><time>2026-04-04T13:58:05.373Z</time></trkpt><trkpt lat="39.9363588" lon="15.7683815"><ele>18.0</ele><time>2026-04-04T13:58:07.373Z</time></trkpt><trkpt lat="39.9363664" lon="15.7682678"><ele>18.0</ele><time>2026-04-04T13:58:09.373Z</time></trkpt><trkpt lat="39.9363996" lon="15.7680951"><ele>18.0</ele><time>2026-04-04T13:58:12.373Z</time></trkpt><trkpt lat="39.9364264" lon="15.7679776"><ele>18.0</ele><time>2026-04-04T13:58:14.373Z</time></trkpt><trkpt lat="39.9364517" lon="15.7678636"><ele>18.0</ele><time>2026-04-04T13:58:16.373Z</time></trkpt><trkpt lat="39.9364759" lon="15.7677418"><ele>18.0</ele><time>2026-04-04T13:58:18.373Z</time></trkpt><trkpt lat="39.9365113" lon="15.7675648"><ele>18.0</ele><time>2026-04-04T13:58:21.373Z</time></trkpt><trkpt lat="39.936533" lon="15.7674497"><ele>18.0</ele><time>2026-04-04T13:58:23.373Z</time></trkpt><trkpt lat="39.9365608" lon="15.7673246"><ele>18.0</ele><time>2026-04-04T13:58:25.373Z</time></trkpt><trkpt lat="39.936612" lon="15.7670773"><ele>18.0</ele><time>2026-04-04T13:58:29.373Z</time></trkpt><trkpt lat="39.936646" lon="15.7668953"><ele>18.75</ele><time>2026-04-04T13:58:32.373Z</time></trkpt><trkpt lat="39.9366938" lon="15.7667093"><ele>19.5</ele><time>2026-04-04T13:58:35.373Z</time></trkpt><trkpt lat="39.9367257" lon="15.7665878"><ele>20.25</ele><time>2026-04-04T13:58:37.373Z</time></trkpt><trkpt lat="39.9367506" lon="15.7664582"><ele>21.0</ele><time>2026-04-04T13:58:39.373Z</time></trkpt><trkpt lat="39.9367776" lon="15.7663303"><ele>21.200000000000003</ele><time>2026-04-04T13:58:41.373Z</time></trkpt><trkpt lat="39.9367991" lon="15.7661983"><ele>21.400000000000002</ele><time>2026-04-04T13:58:43.373Z</time></trkpt><trkpt lat="39.9368268" lon="15.7660805"><ele>21.6</ele><time>2026-04-04T13:58:45.373Z</time></trkpt><trkpt lat="39.936814" lon="15.7659438"><ele>21.8</ele><time>2026-04-04T13:58:47.374Z</time></trkpt><trkpt lat="39.9367649" lon="15.7658172"><ele>22.0</ele><time>2026-04-04T13:58:49.373Z</time></trkpt><trkpt lat="39.9366906" lon="15.7657191"><ele>23.400000000000002</ele><time>2026-04-04T13:58:51.373Z</time></trkpt><trkpt lat="39.9365997" lon="15.765634"><ele>24.8</ele><time>2026-04-04T13:58:53.373Z</time></trkpt><trkpt lat="39.9365084" lon="15.7655531"><ele>26.2</ele><time>2026-04-04T13:58:55.373Z</time></trkpt><trkpt lat="39.9364167" lon="15.7654646"><ele>27.6</ele><time>2026-04-04T13:58:57.373Z</time></trkpt><trkpt lat="39.9363348" lon="15.7653697"><ele>29.0</ele><time>2026-04-04T13:58:59.374Z</time></trkpt><trkpt lat="39.936277" lon="15.7652498"><ele>29.799999999999997</ele><time>2026-04-04T13:59:01.373Z</time></trkpt><trkpt lat="39.9362715" lon="15.7651073"><ele>30.599999999999998</ele><time>2026-04-04T13:59:03.374Z</time></trkpt><trkpt lat="39.9362934" lon="15.764975"><ele>31.4</ele><time>2026-04-04T13:59:05.373Z</time></trkpt><trkpt lat="39.9363194" lon="15.7648505"><ele>32.199999999999996</ele><time>2026-04-04T13:59:07.373Z</time></trkpt><trkpt lat="39.9363505" lon="15.7647307"><ele>33.0</ele><time>2026-04-04T13:59:09.373Z</time></trkpt><trkpt lat="39.9363776" lon="15.7646063"><ele>33.0</ele><time>2026-04-04T13:59:11.373Z</time></trkpt><trkpt lat="39.9364097" lon="15.7644858"><ele>33.0</ele><time>2026-04-04T13:59:13.373Z</time></trkpt><trkpt lat="39.9364461" lon="15.7643689"><ele>33.0</ele><time>2026-04-04T13:59:15.373Z</time></trkpt><trkpt lat="39.9364949" lon="15.7642587"><ele>33.0</ele><time>2026-04-04T13:59:17.373Z</time></trkpt><trkpt lat="39.9365524" lon="15.7641486"><ele>33.0</ele><time>2026-04-04T13:59:19.373Z</time></trkpt><trkpt lat="39.9366143" lon="15.7640536"><ele>32.25</ele><time>2026-04-04T13:59:21.373Z</time></trkpt><trkpt lat="39.9366737" lon="15.7639605"><ele>31.5</ele><time>2026-04-04T13:59:23.373Z</time></trkpt><trkpt lat="39.9367269" lon="15.7638652"><ele>30.75</ele><time>2026-04-04T13:59:25.373Z</time></trkpt><trkpt lat="39.936789" lon="15.7637811"><ele>30.0</ele><time>2026-04-04T13:59:27.373Z</time></trkpt><trkpt lat="39.9369314" lon="15.7636308"><ele>30.4</ele><time>2026-04-04T13:59:31.373Z</time></trkpt><trkpt lat="39.9370111" lon="15.7635708"><ele>30.8</ele><time>2026-04-04T13:59:33.373Z</time></trkpt><trkpt lat="39.9371001" lon="15.7635304"><ele>31.200000000000003</ele><time>2026-04-04T13:59:35.373Z</time></trkpt><trkpt lat="39.9371853" lon="15.7634948"><ele>31.6</ele><time>2026-04-04T13:59:37.373Z</time></trkpt><trkpt lat="39.9373199" lon="15.7634426"><ele>32.0</ele><time>2026-04-04T13:59:40.373Z</time></trkpt><trkpt lat="39.9374077" lon="15.7634108"><ele>32.0</ele><time>2026-04-04T13:59:42.373Z</time></trkpt><trkpt lat="39.9375293" lon="15.7633633"><ele>32.0</ele><time>2026-04-04T13:59:45.373Z</time></trkpt><trkpt lat="39.9376866" lon="15.7633016"><ele>32.0</ele><time>2026-04-04T13:59:49.373Z</time></trkpt><trkpt lat="39.9377692" lon="15.7632882"><ele>32.0</ele><time>2026-04-04T13:59:51.373Z</time></trkpt><trkpt lat="39.9378583" lon="15.763294"><ele>33.5</ele><time>2026-04-04T13:59:53.373Z</time></trkpt><trkpt lat="39.9379461" lon="15.7633144"><ele>35.0</ele><time>2026-04-04T13:59:55.373Z</time></trkpt><trkpt lat="39.9380314" lon="15.7633382"><ele>36.5</ele><time>2026-04-04T13:59:57.373Z</time></trkpt><trkpt lat="39.9381377" lon="15.7633987"><ele>38.0</ele><time>2026-04-04T14:00:00.374Z</time></trkpt><trkpt lat="39.9382881" lon="15.7634645"><ele>39.5</ele><time>2026-04-04T14:00:04.373Z</time></trkpt><trkpt lat="39.9384524" lon="15.7634314"><ele>41.0</ele><time>2026-04-04T14:00:08.373Z</time></trkpt><trkpt lat="39.9385287" lon="15.7633728"><ele>42.5</ele><time>2026-04-04T14:00:10.374Z</time></trkpt><trkpt lat="39.9385853" lon="15.7632851"><ele>44.0</ele><time>2026-04-04T14:00:12.373Z</time></trkpt><trkpt lat="39.9386709" lon="15.7631491"><ele>44.0</ele><time>2026-04-04T14:00:15.373Z</time></trkpt><trkpt lat="39.9387179" lon="15.7630538"><ele>44.0</ele><time>2026-04-04T14:00:17.373Z</time></trkpt><trkpt lat="39.9387663" lon="15.7629635"><ele>44.0</ele><time>2026-04-04T14:00:19.373Z</time></trkpt><trkpt lat="39.9388492" lon="15.7627933"><ele>44.0</ele><time>2026-04-04T14:00:23.373Z</time></trkpt><trkpt lat="39.9389135" lon="15.7626665"><ele>44.0</ele><time>2026-04-04T14:00:26.373Z</time></trkpt><trkpt lat="39.9389489" lon="15.7625815"><ele>43.400000000000006</ele><time>2026-04-04T14:00:28.373Z</time></trkpt><trkpt lat="39.9389868" lon="15.7624952"><ele>42.8</ele><time>2026-04-04T14:00:30.373Z</time></trkpt><trkpt lat="39.9390219" lon="15.7624104"><ele>42.2</ele><time>2026-04-04T14:00:32.373Z</time></trkpt><trkpt lat="39.9390502" lon="15.762321"><ele>41.599999999999994</ele><time>2026-04-04T14:00:34.374Z</time></trkpt><trkpt lat="39.9390794" lon="15.7622321"><ele>41.0</ele><time>2026-04-04T14:00:36.374Z</time></trkpt><trkpt lat="39.9391246" lon="15.7620415"><ele>41.0</ele><time>2026-04-04T14:00:40.373Z</time></trkpt><trkpt lat="39.9391311" lon="15.7619397"><ele>41.0</ele><time>2026-04-04T14:00:42.373Z</time></trkpt><trkpt lat="39.9391342" lon="15.7618359"><ele>41.0</ele><time>2026-04-04T14:00:44.373Z</time></trkpt><trkpt lat="39.9391359" lon="15.7616811"><ele>41.0</ele><time>2026-04-04T14:00:47.373Z</time></trkpt><trkpt lat="39.9391371" lon="15.7614308"><ele>41.4</ele><time>2026-04-04T14:00:52.373Z</time></trkpt><trkpt lat="39.939138" lon="15.7613367"><ele>41.8</ele><time>2026-04-04T14:00:54.373Z</time></trkpt><trkpt lat="39.9391628" lon="15.7611587"><ele>42.199999999999996</ele><time>2026-04-04T14:00:58.373Z</time></trkpt><trkpt lat="39.9391774" lon="15.7610655"><ele>42.599999999999994</ele><time>2026-04-04T14:01:00.373Z</time></trkpt><trkpt lat="39.9391496" lon="15.7608721"><ele>43.0</ele><time>2026-04-04T14:01:04.373Z</time></trkpt><trkpt lat="39.9391247" lon="15.7607766"><ele>43.66666666666667</ele><time>2026-04-04T14:01:06.373Z</time></trkpt><trkpt lat="39.9391033" lon="15.7606844"><ele>44.333333333333336</ele><time>2026-04-04T14:01:08.373Z</time></trkpt><trkpt lat="39.9390813" lon="15.7605935"><ele>45.0</ele><time>2026-04-04T14:01:10.373Z</time></trkpt><trkpt lat="39.9390636" lon="15.7605005"><ele>45.666666666666664</ele><time>2026-04-04T14:01:12.373Z</time></trkpt><trkpt lat="39.9390447" lon="15.7604065"><ele>46.33333333333333</ele><time>2026-04-04T14:01:14.373Z</time></trkpt><trkpt lat="39.9390235" lon="15.7603131"><ele>47.0</ele><time>2026-04-04T14:01:16.373Z</time></trkpt><trkpt lat="39.938995" lon="15.7601753"><ele>48.5</ele><time>2026-04-04T14:01:19.373Z</time></trkpt><trkpt lat="39.9389764" lon="15.760082"><ele>50.0</ele><time>2026-04-04T14:01:21.373Z</time></trkpt><trkpt lat="39.9389589" lon="15.7599888"><ele>51.5</ele><time>2026-04-04T14:01:23.374Z</time></trkpt><trkpt lat="39.9389311" lon="15.7598498"><ele>53.0</ele><time>2026-04-04T14:01:26.373Z</time></trkpt><trkpt lat="39.9389105" lon="15.7597566"><ele>54.50000000000001</ele><time>2026-04-04T14:01:28.373Z</time></trkpt><trkpt lat="39.9388909" lon="15.7596647"><ele>56.0</ele><time>2026-04-04T14:01:30.373Z</time></trkpt><trkpt lat="39.9388752" lon="15.7595712"><ele>56.0</ele><time>2026-04-04T14:01:32.373Z</time></trkpt><trkpt lat="39.9388611" lon="15.7594782"><ele>55.99999999999999</ele><time>2026-04-04T14:01:34.373Z</time></trkpt><trkpt lat="39.9388503" lon="15.759335"><ele>55.99999999999999</ele><time>2026-04-04T14:01:37.373Z</time></trkpt><trkpt lat="39.938844" lon="15.7591421"><ele>56.0</ele><time>2026-04-04T14:01:41.373Z</time></trkpt><trkpt lat="39.9388378" lon="15.7590469"><ele>56.0</ele><time>2026-04-04T14:01:43.373Z</time></trkpt><trkpt lat="39.9388313" lon="15.7589469"><ele>56.8</ele><time>2026-04-04T14:01:45.373Z</time></trkpt><trkpt lat="39.9388283" lon="15.7587527"><ele>57.599999999999994</ele><time>2026-04-04T14:01:49.373Z</time></trkpt><trkpt lat="39.9388267" lon="15.7586552"><ele>58.4</ele><time>2026-04-04T14:01:51.373Z</time></trkpt><trkpt lat="39.9388166" lon="15.7585588"><ele>59.2</ele><time>2026-04-04T14:01:53.373Z</time></trkpt><trkpt lat="39.9387923" lon="15.7583693"><ele>60.0</ele><time>2026-04-04T14:01:57.373Z</time></trkpt><trkpt lat="39.9387801" lon="15.7582752"><ele>61.0</ele><time>2026-04-04T14:01:59.373Z</time></trkpt><trkpt lat="39.9387628" lon="15.7581347"><ele>62.0</ele><time>2026-04-04T14:02:02.374Z</time></trkpt><trkpt lat="39.9387585" lon="15.7580419"><ele>63.0</ele><time>2026-04-04T14:02:04.373Z</time></trkpt><trkpt lat="39.9387627" lon="15.7578991"><ele>64.0</ele><time>2026-04-04T14:02:07.373Z</time></trkpt><trkpt lat="39.938772" lon="15.7578037"><ele>65.0</ele><time>2026-04-04T14:02:09.373Z</time></trkpt><trkpt lat="39.9387822" lon="15.757709"><ele>66.0</ele><time>2026-04-04T14:02:11.373Z</time></trkpt><trkpt lat="39.9387944" lon="15.757571"><ele>66.33333333333333</ele><time>2026-04-04T14:02:14.373Z</time></trkpt><trkpt lat="39.9388054" lon="15.7574783"><ele>66.66666666666667</ele><time>2026-04-04T14:02:16.373Z</time></trkpt><trkpt lat="39.9388203" lon="15.7573897"><ele>67.0</ele><time>2026-04-04T14:02:18.373Z</time></trkpt><trkpt lat="39.9388345" lon="15.7572564"><ele>67.33333333333334</ele><time>2026-04-04T14:02:21.373Z</time></trkpt><trkpt lat="39.9388449" lon="15.7571664"><ele>67.66666666666667</ele><time>2026-04-04T14:02:23.374Z</time></trkpt><trkpt lat="39.9388558" lon="15.7570771"><ele>68.0</ele><time>2026-04-04T14:02:25.373Z</time></trkpt><trkpt lat="39.9388684" lon="15.7569915"><ele>68.0</ele><time>2026-04-04T14:02:27.373Z</time></trkpt><trkpt lat="39.9388776" lon="15.7569005"><ele>68.0</ele><time>2026-04-04T14:02:29.373Z</time></trkpt><trkpt lat="39.938897" lon="15.756761"><ele>68.0</ele><time>2026-04-04T14:02:32.373Z</time></trkpt><trkpt lat="39.9389102" lon="15.7566705"><ele>68.0</ele><time>2026-04-04T14:02:34.373Z</time></trkpt><trkpt lat="39.9389245" lon="15.7564946"><ele>68.0</ele><time>2026-04-04T14:02:38.373Z</time></trkpt><trkpt lat="39.9389103" lon="15.7564092"><ele>69.0</ele><time>2026-04-04T14:02:40.373Z</time></trkpt><trkpt lat="39.9388489" lon="15.7562989"><ele>70.0</ele><time>2026-04-04T14:02:43.373Z</time></trkpt><trkpt lat="39.9387704" lon="15.7562087"><ele>71.0</ele><time>2026-04-04T14:02:46.373Z</time></trkpt><trkpt lat="39.9387128" lon="15.7561586"><ele>72.0</ele><time>2026-04-04T14:02:48.374Z</time></trkpt><trkpt lat="39.9386466" lon="15.7561232"><ele>73.0</ele><time>2026-04-04T14:02:50.373Z</time></trkpt><trkpt lat="39.9385447" lon="15.7560672"><ele>71.4</ele><time>2026-04-04T14:02:53.373Z</time></trkpt><trkpt lat="39.9384354" lon="15.7559503"><ele>69.8</ele><time>2026-04-04T14:02:57.373Z</time></trkpt><trkpt lat="39.9383926" lon="15.7558737"><ele>68.2</ele><time>2026-04-04T14:02:59.373Z</time></trkpt><trkpt lat="39.9383459" lon="15.755797"><ele>66.6</ele><time>2026-04-04T14:03:01.373Z</time></trkpt><trkpt lat="39.9383024" lon="15.7557211"><ele>65.0</ele><time>2026-04-04T14:03:03.373Z</time></trkpt><trkpt lat="39.9382412" lon="15.7556033"><ele>65.0</ele><time>2026-04-04T14:03:06.373Z</time></trkpt><trkpt lat="39.9381983" lon="15.7555305"><ele>65.0</ele><time>2026-04-04T14:03:08.373Z</time></trkpt><trkpt lat="39.9381554" lon="15.7554588"><ele>65.0</ele><time>2026-04-04T14:03:10.373Z</time></trkpt><trkpt lat="39.9380874" lon="15.7553509"><ele>65.0</ele><time>2026-04-04T14:03:13.373Z</time></trkpt><trkpt lat="39.9379932" lon="15.7552136"><ele>65.0</ele><time>2026-04-04T14:03:17.373Z</time></trkpt><trkpt lat="39.9379437" lon="15.7551469"><ele>68.66666666666667</ele><time>2026-04-04T14:03:19.373Z</time></trkpt><trkpt lat="39.9378929" lon="15.7550817"><ele>72.33333333333334</ele><time>2026-04-04T14:03:21.373Z</time></trkpt><trkpt lat="39.9378373" lon="15.7550212"><ele>76.0</ele><time>2026-04-04T14:03:23.373Z</time></trkpt><trkpt lat="39.9377495" lon="15.7549404"><ele>79.66666666666667</ele><time>2026-04-04T14:03:26.373Z</time></trkpt><trkpt lat="39.9376891" lon="15.7548923"><ele>83.33333333333333</ele><time>2026-04-04T14:03:28.373Z</time></trkpt><trkpt lat="39.9376253" lon="15.7548492"><ele>87.0</ele><time>2026-04-04T14:03:30.373Z</time></trkpt><trkpt lat="39.9375605" lon="15.7548124"><ele>83.57142857142857</ele><time>2026-04-04T14:03:32.373Z</time></trkpt><trkpt lat="39.9374955" lon="15.7547779"><ele>80.14285714285714</ele><time>2026-04-04T14:03:34.373Z</time></trkpt><trkpt lat="39.9374289" lon="15.754745"><ele>76.71428571428572</ele><time>2026-04-04T14:03:36.373Z</time></trkpt><trkpt lat="39.9373612" lon="15.7547115"><ele>73.28571428571428</ele><time>2026-04-04T14:03:38.373Z</time></trkpt><trkpt lat="39.9372952" lon="15.7546805"><ele>69.85714285714286</ele><time>2026-04-04T14:03:40.373Z</time></trkpt><trkpt lat="39.9372297" lon="15.7546506"><ele>66.42857142857143</ele><time>2026-04-04T14:03:42.373Z</time></trkpt><trkpt lat="39.9371668" lon="15.7546174"><ele>63.0</ele><time>2026-04-04T14:03:44.373Z</time></trkpt><trkpt lat="39.9371041" lon="15.754577"><ele>63.0</ele><time>2026-04-04T14:03:46.373Z</time></trkpt><trkpt lat="39.9370429" lon="15.7545267"><ele>63.0</ele><time>2026-04-04T14:03:48.373Z</time></trkpt><trkpt lat="39.936919" lon="15.7544125"><ele>63.0</ele><time>2026-04-04T14:03:52.373Z</time></trkpt><trkpt lat="39.9368265" lon="15.7543253"><ele>63.0</ele><time>2026-04-04T14:03:55.373Z</time></trkpt><trkpt lat="39.9367645" lon="15.7542681"><ele>63.0</ele><time>2026-04-04T14:03:57.373Z</time></trkpt><trkpt lat="39.9366863" lon="15.7541688"><ele>61.0</ele><time>2026-04-04T14:04:00.373Z</time></trkpt><trkpt lat="39.9366472" lon="15.7540905"><ele>59.0</ele><time>2026-04-04T14:04:02.373Z</time></trkpt><trkpt lat="39.9366225" lon="15.7540012"><ele>57.0</ele><time>2026-04-04T14:04:04.373Z</time></trkpt><trkpt lat="39.9366193" lon="15.7538221"><ele>55.0</ele><time>2026-04-04T14:04:08.373Z</time></trkpt><trkpt lat="39.9366262" lon="15.7537356"><ele>53.0</ele><time>2026-04-04T14:04:10.373Z</time></trkpt><trkpt lat="39.936633" lon="15.7536459"><ele>51.0</ele><time>2026-04-04T14:04:12.373Z</time></trkpt><trkpt lat="39.9366407" lon="15.7535588"><ele>54.42857142857143</ele><time>2026-04-04T14:04:14.373Z</time></trkpt><trkpt lat="39.9366471" lon="15.7534678"><ele>57.85714285714286</ele><time>2026-04-04T14:04:16.373Z</time></trkpt><trkpt lat="39.9366581" lon="15.7533779"><ele>61.28571428571428</ele><time>2026-04-04T14:04:18.373Z</time></trkpt><trkpt lat="39.9366715" lon="15.7532925"><ele>64.71428571428571</ele><time>2026-04-04T14:04:20.373Z</time></trkpt><trkpt lat="39.9366765" lon="15.7532002"><ele>68.14285714285714</ele><time>2026-04-04T14:04:22.373Z</time></trkpt><trkpt lat="39.9366769" lon="15.7531103"><ele>71.57142857142857</ele><time>2026-04-04T14:04:24.373Z</time></trkpt><trkpt lat="39.9366791" lon="15.7530144"><ele>75.0</ele><time>2026-04-04T14:04:26.373Z</time></trkpt><trkpt lat="39.9366726" lon="15.752921"><ele>75.0</ele><time>2026-04-04T14:04:28.373Z</time></trkpt><trkpt lat="39.9366366" lon="15.752788"><ele>75.0</ele><time>2026-04-04T14:04:31.373Z</time></trkpt><trkpt lat="39.9365998" lon="15.7527025"><ele>75.0</ele><time>2026-04-04T14:04:33.374Z</time></trkpt><trkpt lat="39.9365433" lon="15.7525829"><ele>75.0</ele><time>2026-04-04T14:04:36.373Z</time></trkpt><trkpt lat="39.9364955" lon="15.7525028"><ele>75.0</ele><time>2026-04-04T14:04:38.373Z</time></trkpt><trkpt lat="39.9364459" lon="15.7524251"><ele>75.0</ele><time>2026-04-04T14:04:40.373Z</time></trkpt><trkpt lat="39.9363671" lon="15.7523087"><ele>79.2</ele><time>2026-04-04T14:04:43.373Z</time></trkpt><trkpt lat="39.9363083" lon="15.7522401"><ele>83.4</ele><time>2026-04-04T14:04:45.373Z</time></trkpt><trkpt lat="39.9361813" lon="15.7521126"><ele>87.6</ele><time>2026-04-04T14:04:49.373Z</time></trkpt><trkpt lat="39.9361214" lon="15.7520564"><ele>91.8</ele><time>2026-04-04T14:04:51.373Z</time></trkpt><trkpt lat="39.9360655" lon="15.7520115"><ele>96.0</ele><time>2026-04-04T14:04:53.373Z</time></trkpt><trkpt lat="39.9359957" lon="15.7519457"><ele>92.6</ele><time>2026-04-04T14:04:56.373Z</time></trkpt><trkpt lat="39.935912" lon="15.7518721"><ele>89.19999999999999</ele><time>2026-04-04T14:04:59.373Z</time></trkpt><trkpt lat="39.9358554" lon="15.751822"><ele>85.80000000000001</ele><time>2026-04-04T14:05:01.373Z</time></trkpt><trkpt lat="39.9357901" lon="15.7517607"><ele>82.4</ele><time>2026-04-04T14:05:03.373Z</time></trkpt><trkpt lat="39.9357314" lon="15.7516613"><ele>79.0</ele><time>2026-04-04T14:05:05.373Z</time></trkpt><trkpt lat="39.9356356" lon="15.7514793"><ele>79.0</ele><time>2026-04-04T14:05:08.373Z</time></trkpt><trkpt lat="39.935577" lon="15.7513663"><ele>79.0</ele><time>2026-04-04T14:05:10.373Z</time></trkpt><trkpt lat="39.9355173" lon="15.7511751"><ele>79.0</ele><time>2026-04-04T14:05:13.373Z</time></trkpt><trkpt lat="39.9354923" lon="15.7510376"><ele>79.0</ele><time>2026-04-04T14:05:15.373Z</time></trkpt><trkpt lat="39.9354773" lon="15.7509021"><ele>86.25</ele><time>2026-04-04T14:05:17.373Z</time></trkpt><trkpt lat="39.9354393" lon="15.7507606"><ele>93.5</ele><time>2026-04-04T14:05:19.373Z</time></trkpt><trkpt lat="39.9353886" lon="15.7506463"><ele>100.75</ele><time>2026-04-04T14:05:21.373Z</time></trkpt><trkpt lat="39.9352811" lon="15.7504792"><ele>108.0</ele><time>2026-04-04T14:05:24.373Z</time></trkpt><trkpt lat="39.9351722" lon="15.7503134"><ele>113.0</ele><time>2026-04-04T14:05:27.373Z</time></trkpt><trkpt lat="39.9351455" lon="15.7501072"><ele>118.0</ele><time>2026-04-04T14:05:30.373Z</time></trkpt><trkpt lat="39.9351933" lon="15.7499793"><ele>123.0</ele><time>2026-04-04T14:05:32.373Z</time></trkpt><trkpt lat="39.9352524" lon="15.7498442"><ele>128.0</ele><time>2026-04-04T14:05:34.373Z</time></trkpt><trkpt lat="39.9353016" lon="15.7497112"><ele>128.0</ele><time>2026-04-04T14:05:36.374Z</time></trkpt><trkpt lat="39.9353444" lon="15.7495945"><ele>128.0</ele><time>2026-04-04T14:05:38.373Z</time></trkpt><trkpt lat="39.9353666" lon="15.7494629"><ele>128.0</ele><time>2026-04-04T14:05:40.373Z</time></trkpt><trkpt lat="39.9353122" lon="15.7490501"><ele>129.0</ele><time>2026-04-04T14:05:46.373Z</time></trkpt><trkpt lat="39.9353032" lon="15.7488309"><ele>130.0</ele><time>2026-04-04T14:05:49.374Z</time></trkpt><trkpt lat="39.9353786" lon="15.7485707"><ele>131.0</ele><time>2026-04-04T14:05:53.374Z</time></trkpt><trkpt lat="39.935419" lon="15.7484401"><ele>126.0</ele><time>2026-04-04T14:05:55.373Z</time></trkpt><trkpt lat="39.9354467" lon="15.7482358"><ele>121.0</ele><time>2026-04-04T14:05:58.373Z</time></trkpt><trkpt lat="39.9354477" lon="15.7479494"><ele>116.0</ele><time>2026-04-04T14:06:02.373Z</time></trkpt><trkpt lat="39.935414" lon="15.7476697"><ele>109.75</ele><time>2026-04-04T14:06:06.373Z</time></trkpt><trkpt lat="39.93544" lon="15.747397"><ele>103.5</ele><time>2026-04-04T14:06:10.374Z</time></trkpt><trkpt lat="39.9355148" lon="15.7473083"><ele>97.25</ele><time>2026-04-04T14:06:12.373Z</time></trkpt><trkpt lat="39.9356137" lon="15.747254"><ele>91.0</ele><time>2026-04-04T14:06:14.373Z</time></trkpt><trkpt lat="39.935773" lon="15.7471673"><ele>91.0</ele><time>2026-04-04T14:06:17.373Z</time></trkpt><trkpt lat="39.9358797" lon="15.7471089"><ele>91.0</ele><time>2026-04-04T14:06:19.373Z</time></trkpt><trkpt lat="39.9359913" lon="15.7470732"><ele>91.0</ele><time>2026-04-04T14:06:21.373Z</time></trkpt><trkpt lat="39.9360561" lon="15.7470683"><ele>91.0</ele><time>2026-04-04T14:06:22.373Z</time></trkpt><trkpt lat="39.9361666" lon="15.7470665"><ele>91.0</ele><time>2026-04-04T14:06:24.373Z</time></trkpt><trkpt lat="39.9362652" lon="15.7470774"><ele>92.6</ele><time>2026-04-04T14:06:26.374Z</time></trkpt><trkpt lat="39.9363758" lon="15.7470998"><ele>94.19999999999999</ele><time>2026-04-04T14:06:28.373Z</time></trkpt><trkpt lat="39.9364758" lon="15.7471244"><ele>95.80000000000001</ele><time>2026-04-04T14:06:30.373Z</time></trkpt><trkpt lat="39.936581" lon="15.7471357"><ele>97.4</ele><time>2026-04-04T14:06:32.373Z</time></trkpt><trkpt lat="39.9366858" lon="15.7471631"><ele>99.0</ele><time>2026-04-04T14:06:34.373Z</time></trkpt><trkpt lat="39.9367893" lon="15.7471819"><ele>99.0</ele><time>2026-04-04T14:06:36.373Z</time></trkpt><trkpt lat="39.936893" lon="15.7472142"><ele>99.0</ele><time>2026-04-04T14:06:38.373Z</time></trkpt><trkpt lat="39.9369951" lon="15.7472315"><ele>99.0</ele><time>2026-04-04T14:06:40.373Z</time></trkpt><trkpt lat="39.9370997" lon="15.7472524"><ele>99.0</ele><time>2026-04-04T14:06:42.373Z</time></trkpt><trkpt lat="39.9371975" lon="15.7472608"><ele>99.0</ele><time>2026-04-04T14:06:44.373Z</time></trkpt><trkpt lat="39.9374472" lon="15.7472635"><ele>99.0</ele><time>2026-04-04T14:06:49.373Z</time></trkpt><trkpt lat="39.937549" lon="15.7472497"><ele>99.0</ele><time>2026-04-04T14:06:51.373Z</time></trkpt><trkpt lat="39.937648" lon="15.7472295"><ele>99.0</ele><time>2026-04-04T14:06:53.373Z</time></trkpt><trkpt lat="39.9377429" lon="15.7472011"><ele>99.0</ele><time>2026-04-04T14:06:55.373Z</time></trkpt><trkpt lat="39.9378422" lon="15.7471526"><ele>99.0</ele><time>2026-04-04T14:06:57.373Z</time></trkpt><trkpt lat="39.9379566" lon="15.747064"><ele>97.4</ele><time>2026-04-04T14:07:00.373Z</time></trkpt><trkpt lat="39.9380429" lon="15.7469704"><ele>95.80000000000001</ele><time>2026-04-04T14:07:02.373Z</time></trkpt><trkpt lat="39.9381091" lon="15.7468685"><ele>94.19999999999999</ele><time>2026-04-04T14:07:04.373Z</time></trkpt><trkpt lat="39.9381836" lon="15.7467735"><ele>92.6</ele><time>2026-04-04T14:07:06.373Z</time></trkpt><trkpt lat="39.9382461" lon="15.7466805"><ele>91.0</ele><time>2026-04-04T14:07:08.374Z</time></trkpt><trkpt lat="39.9383618" lon="15.7465377"><ele>91.4</ele><time>2026-04-04T14:07:11.373Z</time></trkpt><trkpt lat="39.9384335" lon="15.7464486"><ele>91.8</ele><time>2026-04-04T14:07:13.373Z</time></trkpt><trkpt lat="39.9385232" lon="15.7463029"><ele>92.2</ele><time>2026-04-04T14:07:16.373Z</time></trkpt><trkpt lat="39.9385905" lon="15.7462106"><ele>92.60000000000001</ele><time>2026-04-04T14:07:18.373Z</time></trkpt><trkpt lat="39.9386487" lon="15.7461275"><ele>93.0</ele><time>2026-04-04T14:07:20.373Z</time></trkpt><trkpt lat="39.9387211" lon="15.7460427"><ele>93.0</ele><time>2026-04-04T14:07:22.373Z</time></trkpt><trkpt lat="39.9387922" lon="15.7459525"><ele>93.0</ele><time>2026-04-04T14:07:24.373Z</time></trkpt><trkpt lat="39.9389013" lon="15.7458243"><ele>93.0</ele><time>2026-04-04T14:07:27.373Z</time></trkpt><trkpt lat="39.9389735" lon="15.7457375"><ele>93.0</ele><time>2026-04-04T14:07:29.373Z</time></trkpt><trkpt lat="39.9390436" lon="15.7456574"><ele>93.0</ele><time>2026-04-04T14:07:31.373Z</time></trkpt><trkpt lat="39.9391115" lon="15.7455695"><ele>93.0</ele><time>2026-04-04T14:07:33.373Z</time></trkpt><trkpt lat="39.9391868" lon="15.7454882"><ele>93.0</ele><time>2026-04-04T14:07:35.373Z</time></trkpt><trkpt lat="39.9392694" lon="15.7454011"><ele>93.0</ele><time>2026-04-04T14:07:37.373Z</time></trkpt><trkpt lat="39.9393415" lon="15.7453108"><ele>93.0</ele><time>2026-04-04T14:07:39.374Z</time></trkpt><trkpt lat="39.9394803" lon="15.7451239"><ele>95.0</ele><time>2026-04-04T14:07:43.373Z</time></trkpt><trkpt lat="39.9395457" lon="15.7450243"><ele>97.0</ele><time>2026-04-04T14:07:45.373Z</time></trkpt><trkpt lat="39.939649" lon="15.7448777"><ele>99.0</ele><time>2026-04-04T14:07:48.373Z</time></trkpt><trkpt lat="39.9397194" lon="15.7447782"><ele>101.0</ele><time>2026-04-04T14:07:50.373Z</time></trkpt><trkpt lat="39.9397801" lon="15.7446754"><ele>101.0</ele><time>2026-04-04T14:07:52.373Z</time></trkpt><trkpt lat="39.9398327" lon="15.7445628"><ele>101.0</ele><time>2026-04-04T14:07:54.373Z</time></trkpt><trkpt lat="39.9398787" lon="15.7444512"><ele>101.0</ele><time>2026-04-04T14:07:56.374Z</time></trkpt><trkpt lat="39.9399234" lon="15.7443247"><ele>101.0</ele><time>2026-04-04T14:07:58.373Z</time></trkpt><trkpt lat="39.9399686" lon="15.7442056"><ele>101.0</ele><time>2026-04-04T14:08:00.373Z</time></trkpt><trkpt lat="39.9400139" lon="15.7440825"><ele>100.8</ele><time>2026-04-04T14:08:02.374Z</time></trkpt><trkpt lat="39.9400476" lon="15.7438965"><ele>100.6</ele><time>2026-04-04T14:08:05.373Z</time></trkpt><trkpt lat="39.9400633" lon="15.7437681"><ele>100.4</ele><time>2026-04-04T14:08:07.373Z</time></trkpt><trkpt lat="39.9400797" lon="15.743644"><ele>100.2</ele><time>2026-04-04T14:08:09.373Z</time></trkpt><trkpt lat="39.9401004" lon="15.7435208"><ele>100.0</ele><time>2026-04-04T14:08:11.374Z</time></trkpt><trkpt lat="39.9401491" lon="15.7434101"><ele>100.0</ele><time>2026-04-04T14:08:13.373Z</time></trkpt><trkpt lat="39.9402217" lon="15.7433212"><ele>100.0</ele><time>2026-04-04T14:08:15.373Z</time></trkpt><trkpt lat="39.9403087" lon="15.7432466"><ele>100.0</ele><time>2026-04-04T14:08:17.373Z</time></trkpt><trkpt lat="39.9404516" lon="15.7431505"><ele>100.0</ele><time>2026-04-04T14:08:20.373Z</time></trkpt><trkpt lat="39.9405884" lon="15.7430638"><ele>100.0</ele><time>2026-04-04T14:08:23.373Z</time></trkpt><trkpt lat="39.9407253" lon="15.7429742"><ele>100.0</ele><time>2026-04-04T14:08:26.373Z</time></trkpt><trkpt lat="39.9408225" lon="15.7429131"><ele>100.0</ele><time>2026-04-04T14:08:28.373Z</time></trkpt><trkpt lat="39.9409049" lon="15.7428453"><ele>100.0</ele><time>2026-04-04T14:08:30.373Z</time></trkpt><trkpt lat="39.9409933" lon="15.742781"><ele>100.33333333333334</ele><time>2026-04-04T14:08:32.373Z</time></trkpt><trkpt lat="39.9411599" lon="15.7426366"><ele>100.66666666666666</ele><time>2026-04-04T14:08:36.373Z</time></trkpt><trkpt lat="39.9412863" lon="15.7425247"><ele>101.0</ele><time>2026-04-04T14:08:39.374Z</time></trkpt><trkpt lat="39.9413692" lon="15.7424574"><ele>101.0</ele><time>2026-04-04T14:08:41.373Z</time></trkpt><trkpt lat="39.9414566" lon="15.7423881"><ele>101.0</ele><time>2026-04-04T14:08:43.373Z</time></trkpt><trkpt lat="39.9415487" lon="15.7423176"><ele>101.0</ele><time>2026-04-04T14:08:45.373Z</time></trkpt><trkpt lat="39.9416403" lon="15.7422528"><ele>101.0</ele><time>2026-04-04T14:08:47.373Z</time></trkpt><trkpt lat="39.9417281" lon="15.74218"><ele>101.0</ele><time>2026-04-04T14:08:49.373Z</time></trkpt><trkpt lat="39.9418519" lon="15.742072"><ele>100.5</ele><time>2026-04-04T14:08:52.373Z</time></trkpt><trkpt lat="39.9419854" lon="15.7419648"><ele>100.0</ele><time>2026-04-04T14:08:55.373Z</time></trkpt><trkpt lat="39.9420664" lon="15.7418906"><ele>99.5</ele><time>2026-04-04T14:08:57.373Z</time></trkpt><trkpt lat="39.9421512" lon="15.7418254"><ele>99.0</ele><time>2026-04-04T14:08:59.373Z</time></trkpt><trkpt lat="39.942233" lon="15.7417547"><ele>99.0</ele><time>2026-04-04T14:09:01.374Z</time></trkpt><trkpt lat="39.9423184" lon="15.7416848"><ele>99.0</ele><time>2026-04-04T14:09:03.373Z</time></trkpt><trkpt lat="39.9424017" lon="15.7416288"><ele>99.0</ele><time>2026-04-04T14:09:05.373Z</time></trkpt><trkpt lat="39.9424793" lon="15.741558"><ele>99.0</ele><time>2026-04-04T14:09:07.373Z</time></trkpt><trkpt lat="39.9425493" lon="15.7414841"><ele>99.0</ele><time>2026-04-04T14:09:09.373Z</time></trkpt><trkpt lat="39.9426608" lon="15.741382"><ele>100.0</ele><time>2026-04-04T14:09:12.373Z</time></trkpt><trkpt lat="39.9427401" lon="15.741308"><ele>101.0</ele><time>2026-04-04T14:09:14.373Z</time></trkpt><trkpt lat="39.9428622" lon="15.7411877"><ele>102.0</ele><time>2026-04-04T14:09:17.373Z</time></trkpt><trkpt lat="39.9429411" lon="15.7411105"><ele>103.0</ele><time>2026-04-04T14:09:19.373Z</time></trkpt><trkpt lat="39.9430243" lon="15.7410334"><ele>103.0</ele><time>2026-04-04T14:09:21.373Z</time></trkpt><trkpt lat="39.9431084" lon="15.7409637"><ele>103.0</ele><time>2026-04-04T14:09:23.373Z</time></trkpt><trkpt lat="39.9431923" lon="15.7408899"><ele>103.0</ele><time>2026-04-04T14:09:25.373Z</time></trkpt><trkpt lat="39.9432772" lon="15.7408205"><ele>103.0</ele><time>2026-04-04T14:09:27.373Z</time></trkpt><trkpt lat="39.9433563" lon="15.7407416"><ele>103.0</ele><time>2026-04-04T14:09:29.373Z</time></trkpt><trkpt lat="39.9434307" lon="15.7406605"><ele>102.0</ele><time>2026-04-04T14:09:31.373Z</time></trkpt><trkpt lat="39.9434993" lon="15.7405723"><ele>101.0</ele><time>2026-04-04T14:09:33.373Z</time></trkpt><trkpt lat="39.9435619" lon="15.740482"><ele>100.0</ele><time>2026-04-04T14:09:35.373Z</time></trkpt><trkpt lat="39.9436502" lon="15.740344"><ele>99.0</ele><time>2026-04-04T14:09:38.373Z</time></trkpt><trkpt lat="39.9437054" lon="15.7402503"><ele>98.0</ele><time>2026-04-04T14:09:40.373Z</time></trkpt><trkpt lat="39.9437875" lon="15.7401226"><ele>98.0</ele><time>2026-04-04T14:09:43.373Z</time></trkpt><trkpt lat="39.9438386" lon="15.7399676"><ele>98.0</ele><time>2026-04-04T14:09:46.373Z</time></trkpt><trkpt lat="39.94394" lon="15.7399119"><ele>98.0</ele><time>2026-04-04T14:10:07.373Z</time></trkpt><trkpt lat="39.9440357" lon="15.7398773"><ele>98.0</ele><time>2026-04-04T14:10:11.373Z</time></trkpt><trkpt lat="39.9441171" lon="15.7398935"><ele>98.0</ele><time>2026-04-04T14:10:14.373Z</time></trkpt><trkpt lat="39.944218" lon="15.7398819"><ele>95.16666666666666</ele><time>2026-04-04T14:10:18.373Z</time></trkpt><trkpt lat="39.944317" lon="15.7399301"><ele>92.33333333333333</ele><time>2026-04-04T14:10:22.373Z</time></trkpt><trkpt lat="39.9443975" lon="15.7399658"><ele>89.5</ele><time>2026-04-04T14:10:26.373Z</time></trkpt><trkpt lat="39.9444692" lon="15.7399993"><ele>86.66666666666666</ele><time>2026-04-04T14:10:31.374Z</time></trkpt><trkpt lat="39.9445376" lon="15.7400352"><ele>83.83333333333333</ele><time>2026-04-04T14:10:35.373Z</time></trkpt><trkpt lat="39.9445975" lon="15.7400647"><ele>81.0</ele><time>2026-04-04T14:10:38.374Z</time></trkpt><trkpt lat="39.9446616" lon="15.7400963"><ele>81.0</ele><time>2026-04-04T14:10:41.373Z</time></trkpt><trkpt lat="39.9447377" lon="15.7401364"><ele>81.0</ele><time>2026-04-04T14:10:45.373Z</time></trkpt><trkpt lat="39.9447938" lon="15.7401742"><ele>81.0</ele><time>2026-04-04T14:10:48.373Z</time></trkpt><trkpt lat="39.9448556" lon="15.7402113"><ele>81.0</ele><time>2026-04-04T14:10:51.373Z</time></trkpt><trkpt lat="39.9449416" lon="15.740255"><ele>81.0</ele><time>2026-04-04T14:10:55.373Z</time></trkpt><trkpt lat="39.9450129" lon="15.7402793"><ele>81.0</ele><time>2026-04-04T14:10:58.373Z</time></trkpt><trkpt lat="39.9450796" lon="15.7402744"><ele>81.0</ele><time>2026-04-04T14:11:14.373Z</time></trkpt><trkpt lat="39.945169" lon="15.7403238"><ele>88.71428571428572</ele><time>2026-04-04T14:11:37.373Z</time></trkpt><trkpt lat="39.9452367" lon="15.7403976"><ele>96.42857142857142</ele><time>2026-04-04T14:11:40.373Z</time></trkpt><trkpt lat="39.9452984" lon="15.7404142"><ele>104.14285714285714</ele><time>2026-04-04T14:11:42.373Z</time></trkpt><trkpt lat="39.9453662" lon="15.7404192"><ele>111.85714285714286</ele><time>2026-04-04T14:11:44.373Z</time></trkpt><trkpt lat="39.9454408" lon="15.7404263"><ele>119.57142857142856</ele><time>2026-04-04T14:11:46.373Z</time></trkpt><trkpt lat="39.9455181" lon="15.7404273"><ele>127.28571428571428</ele><time>2026-04-04T14:11:48.373Z</time></trkpt><trkpt lat="39.9455919" lon="15.7404211"><ele>135.0</ele><time>2026-04-04T14:11:50.373Z</time></trkpt><trkpt lat="39.9457083" lon="15.7404031"><ele>135.0</ele><time>2026-04-04T14:11:53.373Z</time></trkpt><trkpt lat="39.9457885" lon="15.7403871"><ele>135.0</ele><time>2026-04-04T14:11:55.373Z</time></trkpt><trkpt lat="39.945864" lon="15.7403781"><ele>135.0</ele><time>2026-04-04T14:11:57.373Z</time></trkpt><trkpt lat="39.9459402" lon="15.7403735"><ele>135.0</ele><time>2026-04-04T14:11:59.373Z</time></trkpt><trkpt lat="39.946015" lon="15.7403641"><ele>135.0</ele><time>2026-04-04T14:12:01.373Z</time></trkpt><trkpt lat="39.9460853" lon="15.7403502"><ele>135.0</ele><time>2026-04-04T14:12:03.373Z</time></trkpt><trkpt lat="39.9461513" lon="15.7403311"><ele>135.0</ele><time>2026-04-04T14:12:05.373Z</time></trkpt><trkpt lat="39.9462193" lon="15.7403102"><ele>136.33333333333334</ele><time>2026-04-04T14:12:07.373Z</time></trkpt><trkpt lat="39.9462868" lon="15.7402924"><ele>137.66666666666666</ele><time>2026-04-04T14:12:09.373Z</time></trkpt><trkpt lat="39.946354" lon="15.7402742"><ele>139.0</ele><time>2026-04-04T14:12:11.373Z</time></trkpt><trkpt lat="39.9464212" lon="15.7402529"><ele>140.33333333333331</ele><time>2026-04-04T14:12:13.373Z</time></trkpt><trkpt lat="39.9464909" lon="15.7402344"><ele>141.66666666666666</ele><time>2026-04-04T14:12:15.373Z</time></trkpt><trkpt lat="39.946598" lon="15.7402016"><ele>143.0</ele><time>2026-04-04T14:12:18.373Z</time></trkpt><trkpt lat="39.9467053" lon="15.7401716"><ele>138.83333333333331</ele><time>2026-04-04T14:12:21.373Z</time></trkpt><trkpt lat="39.9467736" lon="15.740155"><ele>134.66666666666666</ele><time>2026-04-04T14:12:23.373Z</time></trkpt><trkpt lat="39.9468636" lon="15.7400842"><ele>130.5</ele><time>2026-04-04T14:12:27.373Z</time></trkpt><trkpt lat="39.9469275" lon="15.7400629"><ele>126.33333333333334</ele><time>2026-04-04T14:12:31.373Z</time></trkpt><trkpt lat="39.9470133" lon="15.7400842"><ele>122.16666666666667</ele><time>2026-04-04T14:12:34.373Z</time></trkpt><trkpt lat="39.9470969" lon="15.7400569"><ele>118.0</ele><time>2026-04-04T14:12:37.373Z</time></trkpt><trkpt lat="39.9471577" lon="15.7400275"><ele>118.0</ele><time>2026-04-04T14:12:39.374Z</time></trkpt><trkpt lat="39.947237" lon="15.7399948"><ele>118.00000000000001</ele><time>2026-04-04T14:12:42.373Z</time></trkpt><trkpt lat="39.9473094" lon="15.7399587"><ele>118.00000000000001</ele><time>2026-04-04T14:12:45.373Z</time></trkpt><trkpt lat="39.9473705" lon="15.7399018"><ele>118.0</ele><time>2026-04-04T14:13:55.374Z</time></trkpt><trkpt lat="39.9474628" lon="15.7398646"><ele>118.0</ele><time>2026-04-04T14:13:58.373Z</time></trkpt><trkpt lat="39.9475749" lon="15.7398079"><ele>120.83333333333334</ele><time>2026-04-04T14:14:02.373Z</time></trkpt><trkpt lat="39.9476661" lon="15.7397859"><ele>123.66666666666667</ele><time>2026-04-04T14:14:05.373Z</time></trkpt><trkpt lat="39.9477607" lon="15.7397631"><ele>126.5</ele><time>2026-04-04T14:14:08.374Z</time></trkpt><trkpt lat="39.9478275" lon="15.7397468"><ele>129.33333333333334</ele><time>2026-04-04T14:14:10.374Z</time></trkpt><trkpt lat="39.9479245" lon="15.7397211"><ele>132.16666666666666</ele><time>2026-04-04T14:14:13.373Z</time></trkpt><trkpt lat="39.9479928" lon="15.7396964"><ele>135.0</ele><time>2026-04-04T14:14:15.373Z</time></trkpt><trkpt lat="39.9480542" lon="15.7396706"><ele>135.0</ele><time>2026-04-04T14:14:17.373Z</time></trkpt><trkpt lat="39.9481131" lon="15.739638"><ele>135.0</ele><time>2026-04-04T14:14:19.373Z</time></trkpt><trkpt lat="39.9481757" lon="15.7395937"><ele>135.0</ele><time>2026-04-04T14:14:21.373Z</time></trkpt><trkpt lat="39.9482203" lon="15.7395345"><ele>135.0</ele><time>2026-04-04T14:14:23.373Z</time></trkpt><trkpt lat="39.9481392" lon="15.7395017"><ele>135.0</ele><time>2026-04-04T14:14:45.373Z</time></trkpt><trkpt lat="39.9480769" lon="15.7395188"><ele>135.0</ele><time>2026-04-04T14:14:48.373Z</time></trkpt><trkpt lat="39.9480119" lon="15.7395201"><ele>135.0</ele><time>2026-04-04T14:14:52.373Z</time></trkpt><trkpt lat="39.9479442" lon="15.7395246"><ele>135.0</ele><time>2026-04-04T14:14:55.373Z</time></trkpt><trkpt lat="39.9478605" lon="15.7395241"><ele>135.0</ele><time>2026-04-04T14:14:59.373Z</time></trkpt><trkpt lat="39.9477842" lon="15.739552"><ele>135.0</ele><time>2026-04-04T14:15:02.373Z</time></trkpt><trkpt lat="39.9477218" lon="15.7395289"><ele>135.0</ele><time>2026-04-04T14:15:05.373Z</time></trkpt><trkpt lat="39.9476406" lon="15.7394971"><ele>135.0</ele><time>2026-04-04T14:15:08.373Z</time></trkpt><trkpt lat="39.9475362" lon="15.7395016"><ele>135.0</ele><time>2026-04-04T14:15:12.373Z</time></trkpt><trkpt lat="39.9474564" lon="15.7395175"><ele>132.16666666666666</ele><time>2026-04-04T14:15:15.373Z</time></trkpt><trkpt lat="39.9473786" lon="15.7395525"><ele>129.33333333333334</ele><time>2026-04-04T14:15:18.373Z</time></trkpt><trkpt lat="39.9472777" lon="15.7396101"><ele>126.5</ele><time>2026-04-04T14:15:22.373Z</time></trkpt><trkpt lat="39.947195" lon="15.7396319"><ele>123.66666666666667</ele><time>2026-04-04T14:15:25.373Z</time></trkpt><trkpt lat="39.9471111" lon="15.7396469"><ele>120.83333333333334</ele><time>2026-04-04T14:15:28.374Z</time></trkpt><trkpt lat="39.9470476" lon="15.73965"><ele>118.0</ele><time>2026-04-04T14:15:31.373Z</time></trkpt><trkpt lat="39.9469713" lon="15.7396784"><ele>118.0</ele><time>2026-04-04T14:15:34.373Z</time></trkpt><trkpt lat="39.9468819" lon="15.7396881"><ele>118.00000000000001</ele><time>2026-04-04T14:15:37.373Z</time></trkpt><trkpt lat="39.9467583" lon="15.7397054"><ele>118.00000000000001</ele><time>2026-04-04T14:15:41.373Z</time></trkpt><trkpt lat="39.9466786" lon="15.7397435"><ele>118.0</ele><time>2026-04-04T14:15:44.373Z</time></trkpt><trkpt lat="39.9466012" lon="15.7397625"><ele>118.0</ele><time>2026-04-04T14:15:47.373Z</time></trkpt><trkpt lat="39.9464927" lon="15.7398036"><ele>114.60000000000001</ele><time>2026-04-04T14:15:51.373Z</time></trkpt><trkpt lat="39.9463862" lon="15.7398342"><ele>111.20000000000002</ele><time>2026-04-04T14:15:55.373Z</time></trkpt><trkpt lat="39.9463176" lon="15.7398791"><ele>107.8</ele><time>2026-04-04T14:15:58.373Z</time></trkpt><trkpt lat="39.946258" lon="15.7399365"><ele>104.4</ele><time>2026-04-04T14:16:01.373Z</time></trkpt><trkpt lat="39.9461587" lon="15.7399731"><ele>101.0</ele><time>2026-04-04T14:16:05.373Z</time></trkpt><trkpt lat="39.9460724" lon="15.7400038"><ele>101.0</ele><time>2026-04-04T14:16:08.373Z</time></trkpt><trkpt lat="39.9459672" lon="15.740035"><ele>101.0</ele><time>2026-04-04T14:16:12.373Z</time></trkpt><trkpt lat="39.9458854" lon="15.740056"><ele>101.0</ele><time>2026-04-04T14:16:16.373Z</time></trkpt><trkpt lat="39.9457536" lon="15.7400813"><ele>101.0</ele><time>2026-04-04T14:16:21.373Z</time></trkpt><trkpt lat="39.9456748" lon="15.7400728"><ele>101.0</ele><time>2026-04-04T14:16:23.373Z</time></trkpt><trkpt lat="39.945599" lon="15.7400657"><ele>83.0</ele><time>2026-04-04T14:16:26.373Z</time></trkpt><trkpt lat="39.9454812" lon="15.7400689"><ele>83.0</ele><time>2026-04-04T14:16:31.373Z</time></trkpt><trkpt lat="39.9454063" lon="15.7400717"><ele>83.0</ele><time>2026-04-04T14:16:34.373Z</time></trkpt><trkpt lat="39.945334" lon="15.7400664"><ele>83.0</ele><time>2026-04-04T14:16:37.373Z</time></trkpt><trkpt lat="39.9452493" lon="15.7400544"><ele>83.0</ele><time>2026-04-04T14:16:57.373Z</time></trkpt></trkseg><trkseg><trkpt lat="39.9453011" lon="15.7400917"><ele>83.0</ele><time>2026-04-04T14:27:23.373Z</time></trkpt><trkpt lat="39.9453804" lon="15.7401045"><ele>83.0</ele><time>2026-04-04T14:27:27.373Z</time></trkpt><trkpt lat="39.9454471" lon="15.7401056"><ele>83.0</ele><time>2026-04-04T14:27:30.373Z</time></trkpt><trkpt lat="39.9455166" lon="15.740108"><ele>83.0</ele><time>2026-04-04T14:27:39.373Z</time></trkpt><trkpt lat="39.9455916" lon="15.7401083"><ele>83.0</ele><time>2026-04-04T14:27:43.373Z</time></trkpt><trkpt lat="39.9456554" lon="15.740092"><ele>83.0</ele><time>2026-04-04T14:27:46.373Z</time></trkpt><trkpt lat="39.9457252" lon="15.7400996"><ele>83.0</ele><time>2026-04-04T14:27:49.373Z</time></trkpt><trkpt lat="39.9457925" lon="15.7400993"><ele>83.0</ele><time>2026-04-04T14:27:52.373Z</time></trkpt><trkpt lat="39.94586" lon="15.7400834"><ele>83.0</ele><time>2026-04-04T14:27:56.373Z</time></trkpt><trkpt lat="39.945954" lon="15.7400649"><ele>83.0</ele><time>2026-04-04T14:28:10.373Z</time></trkpt><trkpt lat="39.9460258" lon="15.7400382"><ele>83.0</ele><time>2026-04-04T14:28:13.373Z</time></trkpt><trkpt lat="39.9461134" lon="15.7400104"><ele>83.0</ele><time>2026-04-04T14:28:16.373Z</time></trkpt><trkpt lat="39.9461903" lon="15.7399787"><ele>83.0</ele><time>2026-04-04T14:28:19.373Z</time></trkpt><trkpt lat="39.946267" lon="15.7399447"><ele>86.60000000000001</ele><time>2026-04-04T14:28:22.373Z</time></trkpt><trkpt lat="39.946334" lon="15.7398932"><ele>90.2</ele><time>2026-04-04T14:28:25.373Z</time></trkpt><trkpt lat="39.9464655" lon="15.739822"><ele>93.8</ele><time>2026-04-04T14:28:30.373Z</time></trkpt><trkpt lat="39.946543" lon="15.7398013"><ele>97.4</ele><time>2026-04-04T14:28:33.373Z</time></trkpt><trkpt lat="39.9466862" lon="15.7397588"><ele>101.0</ele><time>2026-04-04T14:28:39.373Z</time></trkpt><trkpt lat="39.9467638" lon="15.7397301"><ele>103.83333333333333</ele><time>2026-04-04T14:28:42.373Z</time></trkpt><trkpt lat="39.9468449" lon="15.7397118"><ele>106.66666666666666</ele><time>2026-04-04T14:28:45.374Z</time></trkpt><trkpt lat="39.9469198" lon="15.73971"><ele>109.5</ele><time>2026-04-04T14:28:48.373Z</time></trkpt><trkpt lat="39.946999" lon="15.7397045"><ele>112.33333333333334</ele><time>2026-04-04T14:28:51.374Z</time></trkpt><trkpt lat="39.9470614" lon="15.739684"><ele>115.16666666666667</ele><time>2026-04-04T14:28:54.373Z</time></trkpt><trkpt lat="39.9471438" lon="15.739673"><ele>118.0</ele><time>2026-04-04T14:29:04.373Z</time></trkpt><trkpt lat="39.9472119" lon="15.7396565"><ele>118.00000000000001</ele><time>2026-04-04T14:29:08.373Z</time></trkpt><trkpt lat="39.9472973" lon="15.7396292"><ele>118.0</ele><time>2026-04-04T14:29:13.373Z</time></trkpt><trkpt lat="39.9473725" lon="15.7395919"><ele>118.0</ele><time>2026-04-04T14:29:17.373Z</time></trkpt><trkpt lat="39.9474648" lon="15.7395482"><ele>118.0</ele><time>2026-04-04T14:29:21.373Z</time></trkpt><trkpt lat="39.9475341" lon="15.7395237"><ele>118.00000000000001</ele><time>2026-04-04T14:29:24.373Z</time></trkpt><trkpt lat="39.947605" lon="15.7395127"><ele>118.0</ele><time>2026-04-04T14:29:27.373Z</time></trkpt><trkpt lat="39.9476727" lon="15.7395286"><ele>120.42857142857142</ele><time>2026-04-04T14:29:30.373Z</time></trkpt><trkpt lat="39.9477356" lon="15.7395613"><ele>122.85714285714286</ele><time>2026-04-04T14:29:51.373Z</time></trkpt><trkpt lat="39.9478058" lon="15.7395634"><ele>125.28571428571428</ele><time>2026-04-04T14:30:05.373Z</time></trkpt><trkpt lat="39.9478686" lon="15.7395367"><ele>127.71428571428571</ele><time>2026-04-04T14:30:09.373Z</time></trkpt><trkpt lat="39.9479434" lon="15.7395409"><ele>130.14285714285714</ele><time>2026-04-04T14:30:18.373Z</time></trkpt><trkpt lat="39.9480084" lon="15.7395213"><ele>132.57142857142856</ele><time>2026-04-04T14:30:26.373Z</time></trkpt><trkpt lat="39.9480784" lon="15.7394979"><ele>135.0</ele><time>2026-04-04T14:30:35.373Z</time></trkpt><trkpt lat="39.9481568" lon="15.7394832"><ele>135.0</ele><time>2026-04-04T14:30:50.373Z</time></trkpt><trkpt lat="39.9481236" lon="15.7395699"><ele>135.0</ele><time>2026-04-04T14:31:33.373Z</time></trkpt><trkpt lat="39.9480509" lon="15.7395947"><ele>135.0</ele><time>2026-04-04T14:31:35.373Z</time></trkpt><trkpt lat="39.9479756" lon="15.7396332"><ele>135.0</ele><time>2026-04-04T14:31:37.373Z</time></trkpt><trkpt lat="39.9478999" lon="15.7396765"><ele>135.0</ele><time>2026-04-04T14:31:39.373Z</time></trkpt><trkpt lat="39.9478306" lon="15.7397274"><ele>135.0</ele><time>2026-04-04T14:31:41.373Z</time></trkpt><trkpt lat="39.9477522" lon="15.7397609"><ele>135.0</ele><time>2026-04-04T14:31:43.373Z</time></trkpt><trkpt lat="39.9476298" lon="15.7398333"><ele>135.0</ele><time>2026-04-04T14:31:46.373Z</time></trkpt><trkpt lat="39.9475355" lon="15.7399202"><ele>135.0</ele><time>2026-04-04T14:31:50.373Z</time></trkpt><trkpt lat="39.9474706" lon="15.7399553"><ele>135.0</ele><time>2026-04-04T14:31:52.374Z</time></trkpt><trkpt lat="39.9474034" lon="15.7399896"><ele>135.0</ele><time>2026-04-04T14:31:54.373Z</time></trkpt><trkpt lat="39.9472886" lon="15.7400863"><ele>132.16666666666666</ele><time>2026-04-04T14:31:58.373Z</time></trkpt><trkpt lat="39.947221" lon="15.7401497"><ele>129.33333333333334</ele><time>2026-04-04T14:32:01.373Z</time></trkpt><trkpt lat="39.9471505" lon="15.7402213"><ele>126.5</ele><time>2026-04-04T14:32:04.373Z</time></trkpt><trkpt lat="39.9470744" lon="15.7402966"><ele>123.66666666666667</ele><time>2026-04-04T14:32:07.373Z</time></trkpt><trkpt lat="39.9469975" lon="15.7403653"><ele>120.83333333333334</ele><time>2026-04-04T14:32:10.373Z</time></trkpt><trkpt lat="39.9469194" lon="15.7404166"><ele>118.0</ele><time>2026-04-04T14:32:13.373Z</time></trkpt><trkpt lat="39.9467621" lon="15.7405274"><ele>122.16666666666667</ele><time>2026-04-04T14:32:19.373Z</time></trkpt><trkpt lat="39.9466762" lon="15.7405695"><ele>126.33333333333334</ele><time>2026-04-04T14:32:22.373Z</time></trkpt><trkpt lat="39.9465936" lon="15.7406154"><ele>130.5</ele><time>2026-04-04T14:32:25.373Z</time></trkpt><trkpt lat="39.946535" lon="15.7406493"><ele>134.66666666666666</ele><time>2026-04-04T14:32:27.373Z</time></trkpt><trkpt lat="39.9464769" lon="15.7406868"><ele>138.83333333333331</ele><time>2026-04-04T14:32:29.373Z</time></trkpt><trkpt lat="39.9464025" lon="15.7407413"><ele>143.0</ele><time>2026-04-04T14:32:32.373Z</time></trkpt><trkpt lat="39.9463244" lon="15.7407957"><ele>143.0</ele><time>2026-04-04T14:32:35.373Z</time></trkpt><trkpt lat="39.9462449" lon="15.7408386"><ele>143.0</ele><time>2026-04-04T14:32:38.373Z</time></trkpt><trkpt lat="39.9461643" lon="15.7408836"><ele>143.0</ele><time>2026-04-04T14:32:41.374Z</time></trkpt><trkpt lat="39.9460873" lon="15.7409317"><ele>143.0</ele><time>2026-04-04T14:32:44.373Z</time></trkpt><trkpt lat="39.9460074" lon="15.7409749"><ele>143.0</ele><time>2026-04-04T14:32:47.373Z</time></trkpt><trkpt lat="39.945929" lon="15.741023"><ele>143.0</ele><time>2026-04-04T14:32:50.373Z</time></trkpt><trkpt lat="39.9458511" lon="15.7410633"><ele>150.60000000000002</ele><time>2026-04-04T14:32:53.373Z</time></trkpt><trkpt lat="39.9457645" lon="15.7410953"><ele>158.20000000000002</ele><time>2026-04-04T14:32:56.373Z</time></trkpt><trkpt lat="39.9456488" lon="15.7411228"><ele>165.8</ele><time>2026-04-04T14:33:00.373Z</time></trkpt><trkpt lat="39.9455646" lon="15.7411435"><ele>173.4</ele><time>2026-04-04T14:33:03.374Z</time></trkpt><trkpt lat="39.9454737" lon="15.7411372"><ele>181.0</ele><time>2026-04-04T14:33:06.373Z</time></trkpt><trkpt lat="39.9453769" lon="15.7411367"><ele>181.0</ele><time>2026-04-04T14:33:10.373Z</time></trkpt><trkpt lat="39.9453083" lon="15.7411474"><ele>181.0</ele><time>2026-04-04T14:33:13.373Z</time></trkpt><trkpt lat="39.9452597" lon="15.7412041"><ele>181.0</ele><time>2026-04-04T14:33:19.373Z</time></trkpt><trkpt lat="39.9453279" lon="15.741256"><ele>181.0</ele><time>2026-04-04T14:33:42.373Z</time></trkpt><trkpt lat="39.9454053" lon="15.7412578"><ele>181.0</ele><time>2026-04-04T14:33:45.374Z</time></trkpt><trkpt lat="39.9454815" lon="15.7412585"><ele>181.0</ele><time>2026-04-04T14:33:48.373Z</time></trkpt><trkpt lat="39.9455544" lon="15.741266"><ele>181.0</ele><time>2026-04-04T14:33:51.373Z</time></trkpt><trkpt lat="39.9457073" lon="15.7412805"><ele>181.0</ele><time>2026-04-04T14:33:57.373Z</time></trkpt><trkpt lat="39.9457827" lon="15.7412815"><ele>181.0</ele><time>2026-04-04T14:34:00.373Z</time></trkpt><trkpt lat="39.9458593" lon="15.741276"><ele>181.0</ele><time>2026-04-04T14:34:03.373Z</time></trkpt><trkpt lat="39.9459314" lon="15.7412753"><ele>181.0</ele><time>2026-04-04T14:34:06.373Z</time></trkpt><trkpt lat="39.9459973" lon="15.7412862"><ele>181.0</ele><time>2026-04-04T14:34:09.373Z</time></trkpt><trkpt lat="39.9460848" lon="15.7412996"><ele>181.0</ele><time>2026-04-04T14:34:13.373Z</time></trkpt><trkpt lat="39.9461569" lon="15.7413022"><ele>181.5</ele><time>2026-04-04T14:34:16.374Z</time></trkpt><trkpt lat="39.9462328" lon="15.7412977"><ele>182.0</ele><time>2026-04-04T14:34:19.373Z</time></trkpt><trkpt lat="39.9463104" lon="15.7412903"><ele>182.5</ele><time>2026-04-04T14:34:22.373Z</time></trkpt><trkpt lat="39.9463772" lon="15.7412871"><ele>183.0</ele><time>2026-04-04T14:34:49.373Z</time></trkpt><trkpt lat="39.94645" lon="15.7412985"><ele>183.5</ele><time>2026-04-04T14:37:17.373Z</time></trkpt><trkpt lat="39.9465499" lon="15.7412785"><ele>184.0</ele><time>2026-04-04T14:37:21.373Z</time></trkpt><trkpt lat="39.946648" lon="15.7412763"><ele>185.33333333333334</ele><time>2026-04-04T14:37:24.373Z</time></trkpt><trkpt lat="39.9467119" lon="15.7412758"><ele>186.66666666666669</ele><time>2026-04-04T14:37:26.373Z</time></trkpt><trkpt lat="39.9467802" lon="15.7412754"><ele>188.0</ele><time>2026-04-04T14:37:28.373Z</time></trkpt><trkpt lat="39.9468711" lon="15.7412819"><ele>189.33333333333334</ele><time>2026-04-04T14:37:31.373Z</time></trkpt><trkpt lat="39.9469587" lon="15.7412889"><ele>190.66666666666666</ele><time>2026-04-04T14:37:34.373Z</time></trkpt><trkpt lat="39.947048" lon="15.7412852"><ele>192.0</ele><time>2026-04-04T14:37:37.373Z</time></trkpt><trkpt lat="39.9471413" lon="15.7412741"><ele>192.0</ele><time>2026-04-04T14:37:40.373Z</time></trkpt><trkpt lat="39.9472044" lon="15.7412743"><ele>192.0</ele><time>2026-04-04T14:37:42.373Z</time></trkpt><trkpt lat="39.9472784" lon="15.7412756"><ele>192.0</ele><time>2026-04-04T14:37:45.373Z</time></trkpt><trkpt lat="39.9473563" lon="15.741276"><ele>192.0</ele><time>2026-04-04T14:37:48.373Z</time></trkpt><trkpt lat="39.9475111" lon="15.7412675"><ele>192.0</ele><time>2026-04-04T14:37:54.373Z</time></trkpt><trkpt lat="39.9476276" lon="15.7412869"><ele>192.0</ele><time>2026-04-04T14:37:59.373Z</time></trkpt><trkpt lat="39.9477055" lon="15.7412706"><ele>192.0</ele><time>2026-04-04T14:38:02.373Z</time></trkpt><trkpt lat="39.9478183" lon="15.7412904"><ele>192.0</ele><time>2026-04-04T14:38:07.373Z</time></trkpt><trkpt lat="39.9477755" lon="15.7413701"><ele>192.0</ele><time>2026-04-04T14:38:10.373Z</time></trkpt><trkpt lat="39.9476879" lon="15.7413996"><ele>192.0</ele><time>2026-04-04T14:38:13.373Z</time></trkpt><trkpt lat="39.947615" lon="15.7414352"><ele>192.0</ele><time>2026-04-04T14:38:16.373Z</time></trkpt><trkpt lat="39.9475107" lon="15.7414871"><ele>192.0</ele><time>2026-04-04T14:38:20.373Z</time></trkpt><trkpt lat="39.947441" lon="15.7415378"><ele>192.0</ele><time>2026-04-04T14:38:23.373Z</time></trkpt><trkpt lat="39.9473464" lon="15.741605"><ele>192.0</ele><time>2026-04-04T14:38:27.373Z</time></trkpt><trkpt lat="39.9472789" lon="15.7416573"><ele>192.0</ele><time>2026-04-04T14:38:30.373Z</time></trkpt><trkpt lat="39.9472108" lon="15.7417053"><ele>192.0</ele><time>2026-04-04T14:38:33.374Z</time></trkpt><trkpt lat="39.9471386" lon="15.7417429"><ele>192.0</ele><time>2026-04-04T14:38:36.373Z</time></trkpt><trkpt lat="39.9470413" lon="15.7417803"><ele>192.0</ele><time>2026-04-04T14:38:40.373Z</time></trkpt><trkpt lat="39.9469672" lon="15.7418009"><ele>192.0</ele><time>2026-04-04T14:38:43.373Z</time></trkpt><trkpt lat="39.9468185" lon="15.7418344"><ele>192.0</ele><time>2026-04-04T14:38:49.373Z</time></trkpt><trkpt lat="39.9467484" lon="15.7418558"><ele>192.0</ele><time>2026-04-04T14:38:52.373Z</time></trkpt><trkpt lat="39.9466222" lon="15.7418992"><ele>192.0</ele><time>2026-04-04T14:38:57.374Z</time></trkpt><trkpt lat="39.9465434" lon="15.7419255"><ele>199.0</ele><time>2026-04-04T14:39:00.373Z</time></trkpt><trkpt lat="39.9464119" lon="15.741955"><ele>206.0</ele><time>2026-04-04T14:39:05.373Z</time></trkpt><trkpt lat="39.9463347" lon="15.7419747"><ele>213.0</ele><time>2026-04-04T14:39:08.373Z</time></trkpt><trkpt lat="39.9462578" lon="15.7419753"><ele>220.0</ele><time>2026-04-04T14:39:11.373Z</time></trkpt><trkpt lat="39.9461773" lon="15.7419952"><ele>227.0</ele><time>2026-04-04T14:39:14.373Z</time></trkpt><trkpt lat="39.9460726" lon="15.7420483"><ele>227.0</ele><time>2026-04-04T14:39:18.373Z</time></trkpt><trkpt lat="39.9459469" lon="15.7421144"><ele>227.0</ele><time>2026-04-04T14:39:23.373Z</time></trkpt><trkpt lat="39.9458717" lon="15.7421417"><ele>227.0</ele><time>2026-04-04T14:39:26.373Z</time></trkpt><trkpt lat="39.9457666" lon="15.7421817"><ele>227.0</ele><time>2026-04-04T14:39:30.373Z</time></trkpt><trkpt lat="39.9456345" lon="15.7422164"><ele>226.16666666666669</ele><time>2026-04-04T14:39:35.373Z</time></trkpt><trkpt lat="39.9455581" lon="15.7422349"><ele>225.33333333333334</ele><time>2026-04-04T14:39:38.374Z</time></trkpt><trkpt lat="39.9454538" lon="15.7422604"><ele>224.5</ele><time>2026-04-04T14:39:42.373Z</time></trkpt><trkpt lat="39.9453515" lon="15.7422972"><ele>223.66666666666669</ele><time>2026-04-04T14:39:46.373Z</time></trkpt><trkpt lat="39.9452787" lon="15.7423247"><ele>222.83333333333334</ele><time>2026-04-04T14:39:50.373Z</time></trkpt><trkpt lat="39.9452119" lon="15.7423282"><ele>222.0</ele><time>2026-04-04T14:39:53.373Z</time></trkpt><trkpt lat="39.9451334" lon="15.7423147"><ele>222.0</ele><time>2026-04-04T14:39:57.373Z</time></trkpt><trkpt lat="39.9450735" lon="15.7423444"><ele>222.0</ele><time>2026-04-04T14:40:00.373Z</time></trkpt><trkpt lat="39.9451086" lon="15.7424387"><ele>222.0</ele><time>2026-04-04T14:40:04.373Z</time></trkpt><trkpt lat="39.9451782" lon="15.7424361"><ele>222.0</ele><time>2026-04-04T14:40:07.373Z</time></trkpt><trkpt lat="39.945248" lon="15.7424351"><ele>222.0</ele><time>2026-04-04T14:40:10.373Z</time></trkpt><trkpt lat="39.9453306" lon="15.7424499"><ele>222.0</ele><time>2026-04-04T14:40:14.373Z</time></trkpt><trkpt lat="39.9454132" lon="15.7424655"><ele>222.0</ele><time>2026-04-04T14:40:18.374Z</time></trkpt><trkpt lat="39.9454965" lon="15.7424823"><ele>222.0</ele><time>2026-04-04T14:40:22.373Z</time></trkpt><trkpt lat="39.9455602" lon="15.7424996"><ele>222.0</ele><time>2026-04-04T14:40:25.374Z</time></trkpt><trkpt lat="39.9456275" lon="15.7425116"><ele>222.0</ele><time>2026-04-04T14:40:28.373Z</time></trkpt><trkpt lat="39.9456928" lon="15.7425348"><ele>222.0</ele><time>2026-04-04T14:40:31.373Z</time></trkpt><trkpt lat="39.9457748" lon="15.7425416"><ele>222.0</ele><time>2026-04-04T14:40:35.373Z</time></trkpt><trkpt lat="39.9458664" lon="15.7425461"><ele>222.83333333333334</ele><time>2026-04-04T14:40:39.373Z</time></trkpt><trkpt lat="39.945958" lon="15.7425421"><ele>223.66666666666669</ele><time>2026-04-04T14:40:43.373Z</time></trkpt><trkpt lat="39.9460506" lon="15.7425551"><ele>224.5</ele><time>2026-04-04T14:40:47.373Z</time></trkpt><trkpt lat="39.9461141" lon="15.742551"><ele>225.33333333333334</ele><time>2026-04-04T14:40:50.373Z</time></trkpt><trkpt lat="39.9461812" lon="15.7425363"><ele>226.16666666666669</ele><time>2026-04-04T14:40:53.373Z</time></trkpt><trkpt lat="39.9462567" lon="15.7425351"><ele>227.0</ele><time>2026-04-04T14:40:56.373Z</time></trkpt><trkpt lat="39.9463302" lon="15.7425463"><ele>227.0</ele><time>2026-04-04T14:40:59.373Z</time></trkpt><trkpt lat="39.9464269" lon="15.7425419"><ele>227.0</ele><time>2026-04-04T14:41:03.373Z</time></trkpt><trkpt lat="39.9465058" lon="15.7425504"><ele>227.0</ele><time>2026-04-04T14:41:06.373Z</time></trkpt><trkpt lat="39.9465849" lon="15.7425582"><ele>227.0</ele><time>2026-04-04T14:41:09.373Z</time></trkpt><trkpt lat="39.9467072" lon="15.742563"><ele>227.0</ele><time>2026-04-04T14:41:14.373Z</time></trkpt><trkpt lat="39.9467908" lon="15.7425796"><ele>227.33333333333334</ele><time>2026-04-04T14:41:17.373Z</time></trkpt><trkpt lat="39.9468728" lon="15.7425994"><ele>227.66666666666669</ele><time>2026-04-04T14:41:20.373Z</time></trkpt><trkpt lat="39.9469468" lon="15.7426061"><ele>228.0</ele><time>2026-04-04T14:41:23.373Z</time></trkpt><trkpt lat="39.9470304" lon="15.7426223"><ele>228.33333333333331</ele><time>2026-04-04T14:41:26.373Z</time></trkpt><trkpt lat="39.9471143" lon="15.7426476"><ele>228.66666666666666</ele><time>2026-04-04T14:41:29.373Z</time></trkpt><trkpt lat="39.9471903" lon="15.7426647"><ele>229.0</ele><time>2026-04-04T14:41:32.373Z</time></trkpt><trkpt lat="39.9472634" lon="15.7426846"><ele>228.99999999999997</ele><time>2026-04-04T14:41:35.373Z</time></trkpt><trkpt lat="39.9473373" lon="15.7426915"><ele>229.0</ele><time>2026-04-04T14:41:38.373Z</time></trkpt><trkpt lat="39.9474059" lon="15.7427022"><ele>229.0</ele><time>2026-04-04T14:41:41.373Z</time></trkpt><trkpt lat="39.9474809" lon="15.7427092"><ele>229.0</ele><time>2026-04-04T14:41:44.374Z</time></trkpt><trkpt lat="39.9475697" lon="15.7427179"><ele>228.99999999999997</ele><time>2026-04-04T14:41:48.373Z</time></trkpt><trkpt lat="39.9476441" lon="15.7427277"><ele>229.0</ele><time>2026-04-04T14:41:51.373Z</time></trkpt><trkpt lat="39.9477705" lon="15.7427345"><ele>238.6</ele><time>2026-04-04T14:41:56.373Z</time></trkpt><trkpt lat="39.9478502" lon="15.7427383"><ele>248.2</ele><time>2026-04-04T14:41:59.373Z</time></trkpt><trkpt lat="39.9480097" lon="15.7427531"><ele>257.79999999999995</ele><time>2026-04-04T14:42:05.374Z</time></trkpt><trkpt lat="39.9481344" lon="15.7427668"><ele>267.4</ele><time>2026-04-04T14:42:10.373Z</time></trkpt><trkpt lat="39.9482049" lon="15.7427677"><ele>277.0</ele><time>2026-04-04T14:42:13.373Z</time></trkpt><trkpt lat="39.9482843" lon="15.7427794"><ele>277.0</ele><time>2026-04-04T14:42:17.374Z</time></trkpt><trkpt lat="39.948371" lon="15.7427819"><ele>277.0</ele><time>2026-04-04T14:42:21.373Z</time></trkpt><trkpt lat="39.9484582" lon="15.7427759"><ele>277.0</ele><time>2026-04-04T14:42:26.373Z</time></trkpt><trkpt lat="39.948465" lon="15.7428619"><ele>277.0</ele><time>2026-04-04T14:42:31.373Z</time></trkpt><trkpt lat="39.9484009" lon="15.7429434"><ele>277.0</ele><time>2026-04-04T14:45:44.373Z</time></trkpt><trkpt lat="39.9482979" lon="15.7430009"><ele>277.0</ele><time>2026-04-04T14:45:51.373Z</time></trkpt><trkpt lat="39.9481921" lon="15.7430561"><ele>277.0</ele><time>2026-04-04T14:45:56.373Z</time></trkpt><trkpt lat="39.9481194" lon="15.7430968"><ele>277.0</ele><time>2026-04-04T14:45:59.373Z</time></trkpt><trkpt lat="39.9480385" lon="15.7431251"><ele>277.0</ele><time>2026-04-04T14:46:02.373Z</time></trkpt><trkpt lat="39.9479717" lon="15.743148"><ele>277.0</ele><time>2026-04-04T14:46:05.373Z</time></trkpt><trkpt lat="39.9478768" lon="15.7431676"><ele>277.0</ele><time>2026-04-04T14:46:08.373Z</time></trkpt><trkpt lat="39.9477966" lon="15.743198"><ele>277.0</ele><time>2026-04-04T14:46:11.373Z</time></trkpt><trkpt lat="39.9477244" lon="15.7432166"><ele>277.0</ele><time>2026-04-04T14:46:14.373Z</time></trkpt><trkpt lat="39.9475971" lon="15.7432617"><ele>277.0</ele><time>2026-04-04T14:46:20.373Z</time></trkpt><trkpt lat="39.9475178" lon="15.7433034"><ele>277.0</ele><time>2026-04-04T14:46:24.373Z</time></trkpt><trkpt lat="39.9474513" lon="15.7433293"><ele>277.0</ele><time>2026-04-04T14:46:27.373Z</time></trkpt><trkpt lat="39.947386" lon="15.7433665"><ele>277.0</ele><time>2026-04-04T14:46:30.373Z</time></trkpt><trkpt lat="39.9472924" lon="15.7434116"><ele>276.5</ele><time>2026-04-04T14:46:34.373Z</time></trkpt><trkpt lat="39.9472234" lon="15.7434445"><ele>276.0</ele><time>2026-04-04T14:46:37.373Z</time></trkpt><trkpt lat="39.9471039" lon="15.7434752"><ele>275.5</ele><time>2026-04-04T14:46:42.373Z</time></trkpt><trkpt lat="39.9470276" lon="15.7434864"><ele>275.0</ele><time>2026-04-04T14:46:45.373Z</time></trkpt><trkpt lat="39.9469552" lon="15.7434934"><ele>274.5</ele><time>2026-04-04T14:46:48.373Z</time></trkpt><trkpt lat="39.9468838" lon="15.743507"><ele>274.0</ele><time>2026-04-04T14:46:51.373Z</time></trkpt><trkpt lat="39.9467908" lon="15.7435227"><ele>274.0</ele><time>2026-04-04T14:46:55.373Z</time></trkpt><trkpt lat="39.9466851" lon="15.7435465"><ele>274.0</ele><time>2026-04-04T14:47:00.373Z</time></trkpt><trkpt lat="39.9465826" lon="15.7435712"><ele>274.0</ele><time>2026-04-04T14:47:05.373Z</time></trkpt><trkpt lat="39.9465022" lon="15.7435913"><ele>274.0</ele><time>2026-04-04T14:47:08.373Z</time></trkpt><trkpt lat="39.9464224" lon="15.7436132"><ele>274.0</ele><time>2026-04-04T14:47:11.373Z</time></trkpt><trkpt lat="39.9463492" lon="15.7436487"><ele>282.3333333333333</ele><time>2026-04-04T14:47:14.373Z</time></trkpt><trkpt lat="39.9462737" lon="15.7436782"><ele>290.66666666666663</ele><time>2026-04-04T14:47:17.373Z</time></trkpt><trkpt lat="39.9461994" lon="15.7437045"><ele>299.0</ele><time>2026-04-04T14:47:20.374Z</time></trkpt><trkpt lat="39.946122" lon="15.7437364"><ele>307.3333333333333</ele><time>2026-04-04T14:47:23.373Z</time></trkpt><trkpt lat="39.9460406" lon="15.7437677"><ele>315.6666666666667</ele><time>2026-04-04T14:47:26.373Z</time></trkpt><trkpt lat="39.9459684" lon="15.7437932"><ele>324.0</ele><time>2026-04-04T14:47:30.373Z</time></trkpt><trkpt lat="39.9460234" lon="15.7438626"><ele>324.0</ele><time>2026-04-04T14:47:35.373Z</time></trkpt><trkpt lat="39.9461082" lon="15.7438576"><ele>324.0</ele><time>2026-04-04T14:47:39.373Z</time></trkpt><trkpt lat="39.9461762" lon="15.7438646"><ele>324.0</ele><time>2026-04-04T14:47:42.374Z</time></trkpt><trkpt lat="39.9462474" lon="15.743871"><ele>324.0</ele><time>2026-04-04T14:47:45.373Z</time></trkpt><trkpt lat="39.9463282" lon="15.7438619"><ele>324.0</ele><time>2026-04-04T14:47:48.373Z</time></trkpt><trkpt lat="39.9464086" lon="15.7438683"><ele>324.0</ele><time>2026-04-04T14:47:51.373Z</time></trkpt><trkpt lat="39.9464798" lon="15.7438796"><ele>324.0</ele><time>2026-04-04T14:47:54.373Z</time></trkpt><trkpt lat="39.9465485" lon="15.7439013"><ele>324.0</ele><time>2026-04-04T14:47:57.373Z</time></trkpt><trkpt lat="39.9466214" lon="15.7439186"><ele>324.0</ele><time>2026-04-04T14:48:00.373Z</time></trkpt><trkpt lat="39.9466952" lon="15.7439309"><ele>324.0</ele><time>2026-04-04T14:48:03.373Z</time></trkpt><trkpt lat="39.9467717" lon="15.743946"><ele>324.0</ele><time>2026-04-04T14:48:06.373Z</time></trkpt><trkpt lat="39.9468557" lon="15.7439758"><ele>324.0</ele><time>2026-04-04T14:48:09.373Z</time></trkpt><trkpt lat="39.9469326" lon="15.7440189"><ele>323.1666666666667</ele><time>2026-04-04T14:48:12.373Z</time></trkpt><trkpt lat="39.9470136" lon="15.7440507"><ele>322.3333333333333</ele><time>2026-04-04T14:48:15.373Z</time></trkpt><trkpt lat="39.9470882" lon="15.744072"><ele>321.5</ele><time>2026-04-04T14:48:18.373Z</time></trkpt><trkpt lat="39.9471721" lon="15.7440997"><ele>320.66666666666663</ele><time>2026-04-04T14:48:21.373Z</time></trkpt><trkpt lat="39.9472527" lon="15.7441321"><ele>319.8333333333333</ele><time>2026-04-04T14:48:24.373Z</time></trkpt><trkpt lat="39.9473377" lon="15.7441503"><ele>319.0</ele><time>2026-04-04T14:48:27.373Z</time></trkpt><trkpt lat="39.9474113" lon="15.7441812"><ele>319.0</ele><time>2026-04-04T14:48:30.373Z</time></trkpt><trkpt lat="39.9474869" lon="15.7442041"><ele>319.0</ele><time>2026-04-04T14:48:33.373Z</time></trkpt><trkpt lat="39.9475654" lon="15.7442196"><ele>319.0</ele><time>2026-04-04T14:48:36.373Z</time></trkpt><trkpt lat="39.9476382" lon="15.744244"><ele>319.0</ele><time>2026-04-04T14:48:39.373Z</time></trkpt><trkpt lat="39.9477096" lon="15.7442663"><ele>319.0</ele><time>2026-04-04T14:48:42.373Z</time></trkpt><trkpt lat="39.9477782" lon="15.7442917"><ele>319.0</ele><time>2026-04-04T14:48:45.374Z</time></trkpt><trkpt lat="39.9478574" lon="15.7443103"><ele>318.8571428571429</ele><time>2026-04-04T14:48:49.373Z</time></trkpt><trkpt lat="39.9479224" lon="15.7443322"><ele>318.71428571428567</ele><time>2026-04-04T14:48:52.374Z</time></trkpt><trkpt lat="39.9479919" lon="15.7443667"><ele>318.57142857142856</ele><time>2026-04-04T14:48:55.373Z</time></trkpt><trkpt lat="39.9480581" lon="15.7444005"><ele>318.42857142857144</ele><time>2026-04-04T14:48:58.373Z</time></trkpt><trkpt lat="39.9481365" lon="15.7444348"><ele>318.28571428571433</ele><time>2026-04-04T14:49:02.373Z</time></trkpt><trkpt lat="39.9482191" lon="15.7444477"><ele>318.1428571428571</ele><time>2026-04-04T14:49:06.373Z</time></trkpt><trkpt lat="39.9482809" lon="15.7444697"><ele>318.0</ele><time>2026-04-04T14:49:10.373Z</time></trkpt><trkpt lat="39.9483428" lon="15.7444928"><ele>326.8333333333333</ele><time>2026-04-04T14:49:15.373Z</time></trkpt><trkpt lat="39.9484271" lon="15.7444985"><ele>335.6666666666667</ele><time>2026-04-04T14:49:26.363Z</time></trkpt><trkpt lat="39.9484949" lon="15.7445116"><ele>344.5</ele><time>2026-04-04T14:49:30.361Z</time></trkpt><trkpt lat="39.9485712" lon="15.7445303"><ele>353.33333333333337</ele><time>2026-04-04T14:49:34.363Z</time></trkpt><trkpt lat="39.9486454" lon="15.7445677"><ele>362.1666666666667</ele><time>2026-04-04T14:49:38.363Z</time></trkpt><trkpt lat="39.9487242" lon="15.7445778"><ele>371.0</ele><time>2026-04-04T14:49:42.363Z</time></trkpt><trkpt lat="39.9487798" lon="15.7446164"><ele>371.0</ele><time>2026-04-04T14:49:45.364Z</time></trkpt><trkpt lat="39.948863" lon="15.7446564"><ele>371.0</ele><time>2026-04-04T14:49:55.363Z</time></trkpt><trkpt lat="39.9489314" lon="15.744649"><ele>371.0</ele><time>2026-04-04T14:50:00.363Z</time></trkpt><trkpt lat="39.9490204" lon="15.7446385"><ele>371.0</ele><time>2026-04-04T14:50:05.364Z</time></trkpt><trkpt lat="39.9490903" lon="15.7446262"><ele>371.0</ele><time>2026-04-04T14:50:09.363Z</time></trkpt><trkpt lat="39.9491644" lon="15.7446386"><ele>371.0</ele><time>2026-04-04T14:50:14.363Z</time></trkpt><trkpt lat="39.9492441" lon="15.744646"><ele>375.0</ele><time>2026-04-04T14:50:19.363Z</time></trkpt><trkpt lat="39.9493264" lon="15.7446519"><ele>379.0</ele><time>2026-04-04T14:50:24.363Z</time></trkpt><trkpt lat="39.9494213" lon="15.7446454"><ele>383.0</ele><time>2026-04-04T14:50:29.363Z</time></trkpt><trkpt lat="39.9494962" lon="15.7446201"><ele>387.0</ele><time>2026-04-04T14:50:33.363Z</time></trkpt><trkpt lat="39.949595" lon="15.7445816"><ele>390.99999999999994</ele><time>2026-04-04T14:50:38.363Z</time></trkpt><trkpt lat="39.949655" lon="15.7445485"><ele>395.0</ele><time>2026-04-04T14:50:41.363Z</time></trkpt><trkpt lat="39.949721" lon="15.7444531"><ele>390.49999999999994</ele><time>2026-04-04T14:50:46.363Z</time></trkpt><trkpt lat="39.9497525" lon="15.7443562"><ele>386.0</ele><time>2026-04-04T14:50:50.363Z</time></trkpt><trkpt lat="39.9498126" lon="15.7442353"><ele>381.5</ele><time>2026-04-04T14:50:55.364Z</time></trkpt><trkpt lat="39.9498818" lon="15.7441722"><ele>377.0</ele><time>2026-04-04T14:50:59.363Z</time></trkpt><trkpt lat="39.9499649" lon="15.7441303"><ele>372.5</ele><time>2026-04-04T14:51:02.363Z</time></trkpt><trkpt lat="39.9500328" lon="15.7441479"><ele>368.0</ele><time>2026-04-04T14:51:05.363Z</time></trkpt><trkpt lat="39.9500646" lon="15.7442478"><ele>349.0</ele><time>2026-04-04T14:54:49.363Z</time></trkpt><trkpt lat="39.9501192" lon="15.7442997"><ele>349.0</ele><time>2026-04-04T15:05:31.364Z</time></trkpt></trkseg></trk></gpx>